<?xml version="1.0" encoding="UTF-8" standalone="no" ?>
<gpx xmlns="http://www.topografix.com/GPX/1/1" xmlns:xsi="http://www.w3.org/2001/XMLSchema-instance" xsi:schemaLocation="http://www.topografix.com/GPX/1/1 http://www.topografix.com/GPX/1/1/gpx.xsd" version="1.1" creator="VisuGPX - https://www.visugpx.com">
  <metadata>
    <name>Pichaley depuis espiaube - 07/04/22</name>
    <desc><![CDATA[08:17:42 (Dup.trace)

comment ...]]></desc>
  </metadata>
  <trk>
    <name><![CDATA[Pichaley depuis espiaube - 07/04/22]]></name>
    <desc><![CDATA[comment ...]]></desc>
    <extensions>
      <line xmlns="http://www.topografix.com/GPX/gpx_style/0/2">
        <color>0000FF</color>
        <width>4</width>
      </line>
    </extensions>
    <trkseg>
      <trkpt lat="42.82529" lon="0.25806">
        <ele>1595.9</ele>
        <time>2022-04-07T06:17:51Z</time>
      </trkpt>
      <trkpt lat="42.82522" lon="0.25813">
        <ele>1596.9</ele>
        <time>2022-04-07T06:17:59Z</time>
      </trkpt>
      <trkpt lat="42.8251" lon="0.25811">
        <ele>1600.7</ele>
        <time>2022-04-07T06:18:07Z</time>
      </trkpt>
      <trkpt lat="42.82505" lon="0.25821">
        <ele>1601.3</ele>
        <time>2022-04-07T06:18:15Z</time>
      </trkpt>
      <trkpt lat="42.825" lon="0.25834">
        <ele>1601.9</ele>
        <time>2022-04-07T06:18:26Z</time>
      </trkpt>
      <trkpt lat="42.82498" lon="0.25847">
        <ele>1601.7</ele>
        <time>2022-04-07T06:18:40Z</time>
      </trkpt>
      <trkpt lat="42.82491" lon="0.25856">
        <ele>1605.1</ele>
        <time>2022-04-07T06:18:51Z</time>
      </trkpt>
      <trkpt lat="42.82482" lon="0.25892">
        <ele>1604.8</ele>
        <time>2022-04-07T06:19:26Z</time>
      </trkpt>
      <trkpt lat="42.8247" lon="0.2591">
        <ele>1609.6</ele>
        <time>2022-04-07T06:19:45Z</time>
      </trkpt>
      <trkpt lat="42.82458" lon="0.25924">
        <ele>1616.2</ele>
        <time>2022-04-07T06:20:07Z</time>
      </trkpt>
      <trkpt lat="42.82453" lon="0.25938">
        <ele>1617.8</ele>
        <time>2022-04-07T06:20:21Z</time>
      </trkpt>
      <trkpt lat="42.82446" lon="0.25948">
        <ele>1621.5</ele>
        <time>2022-04-07T06:20:34Z</time>
      </trkpt>
      <trkpt lat="42.82438" lon="0.25983">
        <ele>1623.3</ele>
        <time>2022-04-07T06:21:06Z</time>
      </trkpt>
      <trkpt lat="42.8244" lon="0.25994">
        <ele>1620.8</ele>
        <time>2022-04-07T06:21:16Z</time>
      </trkpt>
      <trkpt lat="42.82434" lon="0.26005">
        <ele>1624.1</ele>
        <time>2022-04-07T06:21:53Z</time>
      </trkpt>
      <trkpt lat="42.82438" lon="0.26015">
        <ele>1620.4</ele>
        <time>2022-04-07T06:22:02Z</time>
      </trkpt>
      <trkpt lat="42.8244" lon="0.26028">
        <ele>1618</ele>
        <time>2022-04-07T06:22:16Z</time>
      </trkpt>
      <trkpt lat="42.82427" lon="0.26073">
        <ele>1621.9</ele>
        <time>2022-04-07T06:22:54Z</time>
      </trkpt>
      <trkpt lat="42.82419" lon="0.2609">
        <ele>1625.1</ele>
        <time>2022-04-07T06:23:10Z</time>
      </trkpt>
      <trkpt lat="42.82409" lon="0.26122">
        <ele>1628.5</ele>
        <time>2022-04-07T06:23:37Z</time>
      </trkpt>
      <trkpt lat="42.82407" lon="0.26147">
        <ele>1627</ele>
        <time>2022-04-07T06:23:59Z</time>
      </trkpt>
      <trkpt lat="42.82401" lon="0.26175">
        <ele>1627.7</ele>
        <time>2022-04-07T06:24:20Z</time>
      </trkpt>
      <trkpt lat="42.82392" lon="0.2619">
        <ele>1631.6</ele>
        <time>2022-04-07T06:24:40Z</time>
      </trkpt>
      <trkpt lat="42.82385" lon="0.26194">
        <ele>1635.6</ele>
        <time>2022-04-07T06:25:01Z</time>
      </trkpt>
      <trkpt lat="42.82386" lon="0.26172">
        <ele>1637.4</ele>
        <time>2022-04-07T06:25:38Z</time>
      </trkpt>
      <trkpt lat="42.82381" lon="0.26149">
        <ele>1643.3</ele>
        <time>2022-04-07T06:26:04Z</time>
      </trkpt>
      <trkpt lat="42.82374" lon="0.26128">
        <ele>1650.4</ele>
        <time>2022-04-07T06:26:35Z</time>
      </trkpt>
      <trkpt lat="42.82372" lon="0.26112">
        <ele>1653.5</ele>
        <time>2022-04-07T06:26:50Z</time>
      </trkpt>
      <trkpt lat="42.82377" lon="0.26085">
        <ele>1653.9</ele>
        <time>2022-04-07T06:27:17Z</time>
      </trkpt>
      <trkpt lat="42.82376" lon="0.26069">
        <ele>1656.9</ele>
        <time>2022-04-07T06:27:34Z</time>
      </trkpt>
      <trkpt lat="42.82381" lon="0.26049">
        <ele>1656.2</ele>
        <time>2022-04-07T06:27:54Z</time>
      </trkpt>
      <trkpt lat="42.82383" lon="0.26031">
        <ele>1657.1</ele>
        <time>2022-04-07T06:28:14Z</time>
      </trkpt>
      <trkpt lat="42.82381" lon="0.26015">
        <ele>1660.8</ele>
        <time>2022-04-07T06:28:31Z</time>
      </trkpt>
      <trkpt lat="42.82379" lon="0.26001">
        <ele>1664.3</ele>
        <time>2022-04-07T06:28:52Z</time>
      </trkpt>
      <trkpt lat="42.82379" lon="0.25988">
        <ele>1665.9</ele>
        <time>2022-04-07T06:29:06Z</time>
      </trkpt>
      <trkpt lat="42.82373" lon="0.25972">
        <ele>1672.6</ele>
        <time>2022-04-07T06:29:24Z</time>
      </trkpt>
      <trkpt lat="42.82372" lon="0.25961">
        <ele>1674.8</ele>
        <time>2022-04-07T06:29:36Z</time>
      </trkpt>
      <trkpt lat="42.82369" lon="0.25936">
        <ele>1680.9</ele>
        <time>2022-04-07T06:29:58Z</time>
      </trkpt>
      <trkpt lat="42.82372" lon="0.25922">
        <ele>1680.7</ele>
        <time>2022-04-07T06:30:13Z</time>
      </trkpt>
      <trkpt lat="42.8237" lon="0.25904">
        <ele>1686.2</ele>
        <time>2022-04-07T06:30:34Z</time>
      </trkpt>
      <trkpt lat="42.82373" lon="0.25885">
        <ele>1688.2</ele>
        <time>2022-04-07T06:30:54Z</time>
      </trkpt>
      <trkpt lat="42.82377" lon="0.25869">
        <ele>1689.3</ele>
        <time>2022-04-07T06:31:15Z</time>
      </trkpt>
      <trkpt lat="42.82383" lon="0.25845">
        <ele>1690.4</ele>
        <time>2022-04-07T06:31:49Z</time>
      </trkpt>
      <trkpt lat="42.82388" lon="0.25827">
        <ele>1690.5</ele>
        <time>2022-04-07T06:32:09Z</time>
      </trkpt>
      <trkpt lat="42.82382" lon="0.25782">
        <ele>1698.1</ele>
        <time>2022-04-07T06:32:49Z</time>
      </trkpt>
      <trkpt lat="42.82386" lon="0.25759">
        <ele>1696.6</ele>
        <time>2022-04-07T06:33:14Z</time>
      </trkpt>
      <trkpt lat="42.82378" lon="0.25738">
        <ele>1703.2</ele>
        <time>2022-04-07T06:33:35Z</time>
      </trkpt>
      <trkpt lat="42.82371" lon="0.25715">
        <ele>1709.9</ele>
        <time>2022-04-07T06:34:06Z</time>
      </trkpt>
      <trkpt lat="42.82363" lon="0.257">
        <ele>1716.4</ele>
        <time>2022-04-07T06:34:33Z</time>
      </trkpt>
      <trkpt lat="42.82357" lon="0.25694">
        <ele>1720.8</ele>
        <time>2022-04-07T06:34:42Z</time>
      </trkpt>
      <trkpt lat="42.82354" lon="0.25683">
        <ele>1723.7</ele>
        <time>2022-04-07T06:34:54Z</time>
      </trkpt>
      <trkpt lat="42.82353" lon="0.25672">
        <ele>1725.2</ele>
        <time>2022-04-07T06:35:14Z</time>
      </trkpt>
      <trkpt lat="42.82349" lon="0.25661">
        <ele>1728.9</ele>
        <time>2022-04-07T06:35:29Z</time>
      </trkpt>
      <trkpt lat="42.8235" lon="0.25646">
        <ele>1730</ele>
        <time>2022-04-07T06:35:49Z</time>
      </trkpt>
      <trkpt lat="42.82339" lon="0.2561">
        <ele>1741.5</ele>
        <time>2022-04-07T06:36:37Z</time>
      </trkpt>
      <trkpt lat="42.82338" lon="0.25592">
        <ele>1740.9</ele>
        <time>2022-04-07T06:37:16Z</time>
      </trkpt>
      <trkpt lat="42.82334" lon="0.25578">
        <ele>1742</ele>
        <time>2022-04-07T06:37:35Z</time>
      </trkpt>
      <trkpt lat="42.82325" lon="0.25562">
        <ele>1745.5</ele>
        <time>2022-04-07T06:38:06Z</time>
      </trkpt>
      <trkpt lat="42.82322" lon="0.25551">
        <ele>1747.7</ele>
        <time>2022-04-07T06:38:28Z</time>
      </trkpt>
      <trkpt lat="42.82318" lon="0.25542">
        <ele>1751.2</ele>
        <time>2022-04-07T06:38:48Z</time>
      </trkpt>
      <trkpt lat="42.82315" lon="0.25532">
        <ele>1754.9</ele>
        <time>2022-04-07T06:39:04Z</time>
      </trkpt>
      <trkpt lat="42.82309" lon="0.25521">
        <ele>1760.8</ele>
        <time>2022-04-07T06:39:34Z</time>
      </trkpt>
      <trkpt lat="42.82305" lon="0.25506">
        <ele>1768.2</ele>
        <time>2022-04-07T06:40:07Z</time>
      </trkpt>
      <trkpt lat="42.82317" lon="0.25475">
        <ele>1769.3</ele>
        <time>2022-04-07T06:40:40Z</time>
      </trkpt>
      <trkpt lat="42.82322" lon="0.25464">
        <ele>1768.7</ele>
        <time>2022-04-07T06:40:52Z</time>
      </trkpt>
      <trkpt lat="42.82325" lon="0.25454">
        <ele>1769</ele>
        <time>2022-04-07T06:41:02Z</time>
      </trkpt>
      <trkpt lat="42.82339" lon="0.25415">
        <ele>1770.8</ele>
        <time>2022-04-07T06:41:43Z</time>
      </trkpt>
      <trkpt lat="42.82347" lon="0.25402">
        <ele>1773.1</ele>
        <time>2022-04-07T06:42:01Z</time>
      </trkpt>
      <trkpt lat="42.82351" lon="0.25393">
        <ele>1774.9</ele>
        <time>2022-04-07T06:42:14Z</time>
      </trkpt>
      <trkpt lat="42.82357" lon="0.25382">
        <ele>1777</ele>
        <time>2022-04-07T06:42:28Z</time>
      </trkpt>
      <trkpt lat="42.82364" lon="0.25371">
        <ele>1779.2</ele>
        <time>2022-04-07T06:42:43Z</time>
      </trkpt>
      <trkpt lat="42.82371" lon="0.2536">
        <ele>1781.1</ele>
        <time>2022-04-07T06:42:58Z</time>
      </trkpt>
      <trkpt lat="42.82387" lon="0.25339">
        <ele>1781.1</ele>
        <time>2022-04-07T06:43:30Z</time>
      </trkpt>
      <trkpt lat="42.82399" lon="0.25323">
        <ele>1784.2</ele>
        <time>2022-04-07T06:43:56Z</time>
      </trkpt>
      <trkpt lat="42.82409" lon="0.25315">
        <ele>1785</ele>
        <time>2022-04-07T06:44:12Z</time>
      </trkpt>
      <trkpt lat="42.82416" lon="0.25308">
        <ele>1786.1</ele>
        <time>2022-04-07T06:44:25Z</time>
      </trkpt>
      <trkpt lat="42.82423" lon="0.25299">
        <ele>1788.5</ele>
        <time>2022-04-07T06:44:39Z</time>
      </trkpt>
      <trkpt lat="42.82441" lon="0.25282">
        <ele>1791.9</ele>
        <time>2022-04-07T06:45:12Z</time>
      </trkpt>
      <trkpt lat="42.82454" lon="0.25264">
        <ele>1795.6</ele>
        <time>2022-04-07T06:45:39Z</time>
      </trkpt>
      <trkpt lat="42.82459" lon="0.25256">
        <ele>1797.5</ele>
        <time>2022-04-07T06:45:51Z</time>
      </trkpt>
      <trkpt lat="42.82468" lon="0.25233">
        <ele>1801.9</ele>
        <time>2022-04-07T06:46:24Z</time>
      </trkpt>
      <trkpt lat="42.82479" lon="0.25201">
        <ele>1807.2</ele>
        <time>2022-04-07T06:47:04Z</time>
      </trkpt>
      <trkpt lat="42.82487" lon="0.25194">
        <ele>1808.5</ele>
        <time>2022-04-07T06:47:16Z</time>
      </trkpt>
      <trkpt lat="42.82496" lon="0.25173">
        <ele>1810.5</ele>
        <time>2022-04-07T06:47:46Z</time>
      </trkpt>
      <trkpt lat="42.82505" lon="0.25147">
        <ele>1812.2</ele>
        <time>2022-04-07T06:48:16Z</time>
      </trkpt>
      <trkpt lat="42.82514" lon="0.25121">
        <ele>1813.5</ele>
        <time>2022-04-07T06:48:37Z</time>
      </trkpt>
      <trkpt lat="42.8252" lon="0.25087">
        <ele>1815</ele>
        <time>2022-04-07T06:49:09Z</time>
      </trkpt>
      <trkpt lat="42.82524" lon="0.25052">
        <ele>1816.9</ele>
        <time>2022-04-07T06:49:44Z</time>
      </trkpt>
      <trkpt lat="42.82524" lon="0.25036">
        <ele>1818.6</ele>
        <time>2022-04-07T06:50:00Z</time>
      </trkpt>
      <trkpt lat="42.82528" lon="0.25022">
        <ele>1818.8</ele>
        <time>2022-04-07T06:50:12Z</time>
      </trkpt>
      <trkpt lat="42.82527" lon="0.25009">
        <ele>1821</ele>
        <time>2022-04-07T06:50:27Z</time>
      </trkpt>
      <trkpt lat="42.82533" lon="0.24984">
        <ele>1823.8</ele>
        <time>2022-04-07T06:50:51Z</time>
      </trkpt>
      <trkpt lat="42.8253" lon="0.24973">
        <ele>1827</ele>
        <time>2022-04-07T06:51:02Z</time>
      </trkpt>
      <trkpt lat="42.82538" lon="0.2492">
        <ele>1831.7</ele>
        <time>2022-04-07T06:51:58Z</time>
      </trkpt>
      <trkpt lat="42.82542" lon="0.24896">
        <ele>1834.3</ele>
        <time>2022-04-07T06:52:24Z</time>
      </trkpt>
      <trkpt lat="42.82542" lon="0.24901">
        <ele>1833.5</ele>
        <time>2022-04-07T06:57:23Z</time>
      </trkpt>
      <trkpt lat="42.8255" lon="0.24895">
        <ele>1832.8</ele>
        <time>2022-04-07T06:57:55Z</time>
      </trkpt>
      <trkpt lat="42.82554" lon="0.24883">
        <ele>1834.5</ele>
        <time>2022-04-07T06:58:25Z</time>
      </trkpt>
      <trkpt lat="42.82564" lon="0.2486">
        <ele>1839.2</ele>
        <time>2022-04-07T06:58:55Z</time>
      </trkpt>
      <trkpt lat="42.82572" lon="0.24855">
        <ele>1840.1</ele>
        <time>2022-04-07T06:59:06Z</time>
      </trkpt>
      <trkpt lat="42.8259" lon="0.24847">
        <ele>1842.7</ele>
        <time>2022-04-07T06:59:28Z</time>
      </trkpt>
      <trkpt lat="42.82605" lon="0.24851">
        <ele>1844.3</ele>
        <time>2022-04-07T06:59:44Z</time>
      </trkpt>
      <trkpt lat="42.82629" lon="0.24864">
        <ele>1846.7</ele>
        <time>2022-04-07T07:00:15Z</time>
      </trkpt>
      <trkpt lat="42.82643" lon="0.24873">
        <ele>1847.5</ele>
        <time>2022-04-07T07:00:35Z</time>
      </trkpt>
      <trkpt lat="42.82668" lon="0.24885">
        <ele>1849.2</ele>
        <time>2022-04-07T07:01:06Z</time>
      </trkpt>
      <trkpt lat="42.82692" lon="0.24897">
        <ele>1850.8</ele>
        <time>2022-04-07T07:01:37Z</time>
      </trkpt>
      <trkpt lat="42.82721" lon="0.24908">
        <ele>1854.4</ele>
        <time>2022-04-07T07:02:16Z</time>
      </trkpt>
      <trkpt lat="42.82737" lon="0.24915">
        <ele>1856</ele>
        <time>2022-04-07T07:02:35Z</time>
      </trkpt>
      <trkpt lat="42.82747" lon="0.24916">
        <ele>1858.5</ele>
        <time>2022-04-07T07:02:46Z</time>
      </trkpt>
      <trkpt lat="42.82759" lon="0.24923">
        <ele>1858</ele>
        <time>2022-04-07T07:03:03Z</time>
      </trkpt>
      <trkpt lat="42.82791" lon="0.24927">
        <ele>1862</ele>
        <time>2022-04-07T07:03:47Z</time>
      </trkpt>
      <trkpt lat="42.82799" lon="0.24921">
        <ele>1866.1</ele>
        <time>2022-04-07T07:03:57Z</time>
      </trkpt>
      <trkpt lat="42.82806" lon="0.24927">
        <ele>1863.8</ele>
        <time>2022-04-07T07:04:03Z</time>
      </trkpt>
      <trkpt lat="42.82814" lon="0.24927">
        <ele>1863.7</ele>
        <time>2022-04-07T07:04:14Z</time>
      </trkpt>
      <trkpt lat="42.8284" lon="0.2492">
        <ele>1866.4</ele>
        <time>2022-04-07T07:04:48Z</time>
      </trkpt>
      <trkpt lat="42.82871" lon="0.249">
        <ele>1872.5</ele>
        <time>2022-04-07T07:05:37Z</time>
      </trkpt>
      <trkpt lat="42.82879" lon="0.24891">
        <ele>1874.8</ele>
        <time>2022-04-07T07:05:56Z</time>
      </trkpt>
      <trkpt lat="42.82892" lon="0.2487">
        <ele>1881</ele>
        <time>2022-04-07T07:06:32Z</time>
      </trkpt>
      <trkpt lat="42.82911" lon="0.24853">
        <ele>1884.3</ele>
        <time>2022-04-07T07:07:06Z</time>
      </trkpt>
      <trkpt lat="42.82914" lon="0.24843">
        <ele>1886</ele>
        <time>2022-04-07T07:07:24Z</time>
      </trkpt>
      <trkpt lat="42.82926" lon="0.24819">
        <ele>1890.9</ele>
        <time>2022-04-07T07:08:01Z</time>
      </trkpt>
      <trkpt lat="42.82932" lon="0.24812">
        <ele>1892.6</ele>
        <time>2022-04-07T07:08:18Z</time>
      </trkpt>
      <trkpt lat="42.82942" lon="0.24798">
        <ele>1895.7</ele>
        <time>2022-04-07T07:08:44Z</time>
      </trkpt>
      <trkpt lat="42.82948" lon="0.24789">
        <ele>1897.8</ele>
        <time>2022-04-07T07:09:02Z</time>
      </trkpt>
      <trkpt lat="42.82961" lon="0.2477">
        <ele>1902.4</ele>
        <time>2022-04-07T07:09:33Z</time>
      </trkpt>
      <trkpt lat="42.8296" lon="0.24763">
        <ele>1904</ele>
        <time>2022-04-07T07:09:42Z</time>
      </trkpt>
      <trkpt lat="42.82968" lon="0.24759">
        <ele>1905</ele>
        <time>2022-04-07T07:09:51Z</time>
      </trkpt>
      <trkpt lat="42.82975" lon="0.24754">
        <ele>1906.3</ele>
        <time>2022-04-07T07:10:08Z</time>
      </trkpt>
      <trkpt lat="42.82983" lon="0.24748">
        <ele>1908.3</ele>
        <time>2022-04-07T07:10:24Z</time>
      </trkpt>
      <trkpt lat="42.8299" lon="0.2474">
        <ele>1910.6</ele>
        <time>2022-04-07T07:10:40Z</time>
      </trkpt>
      <trkpt lat="42.83004" lon="0.24726">
        <ele>1914.6</ele>
        <time>2022-04-07T07:11:14Z</time>
      </trkpt>
      <trkpt lat="42.83024" lon="0.2472">
        <ele>1918.2</ele>
        <time>2022-04-07T07:11:48Z</time>
      </trkpt>
      <trkpt lat="42.83032" lon="0.24715">
        <ele>1920.5</ele>
        <time>2022-04-07T07:12:09Z</time>
      </trkpt>
      <trkpt lat="42.83046" lon="0.24714">
        <ele>1922.9</ele>
        <time>2022-04-07T07:12:31Z</time>
      </trkpt>
      <trkpt lat="42.83054" lon="0.24712">
        <ele>1924.7</ele>
        <time>2022-04-07T07:12:45Z</time>
      </trkpt>
      <trkpt lat="42.83063" lon="0.24712">
        <ele>1926.2</ele>
        <time>2022-04-07T07:12:58Z</time>
      </trkpt>
      <trkpt lat="42.83085" lon="0.24712">
        <ele>1929.9</ele>
        <time>2022-04-07T07:13:35Z</time>
      </trkpt>
      <trkpt lat="42.83114" lon="0.24713">
        <ele>1933.2</ele>
        <time>2022-04-07T07:14:18Z</time>
      </trkpt>
      <trkpt lat="42.83144" lon="0.24707">
        <ele>1937.1</ele>
        <time>2022-04-07T07:14:58Z</time>
      </trkpt>
      <trkpt lat="42.83152" lon="0.24705">
        <ele>1937.9</ele>
        <time>2022-04-07T07:15:08Z</time>
      </trkpt>
      <trkpt lat="42.83169" lon="0.2469">
        <ele>1941.6</ele>
        <time>2022-04-07T07:15:38Z</time>
      </trkpt>
      <trkpt lat="42.83176" lon="0.24688">
        <ele>1941.9</ele>
        <time>2022-04-07T07:15:45Z</time>
      </trkpt>
      <trkpt lat="42.83186" lon="0.2468">
        <ele>1942.7</ele>
        <time>2022-04-07T07:15:58Z</time>
      </trkpt>
      <trkpt lat="42.83205" lon="0.24649">
        <ele>1944.7</ele>
        <time>2022-04-07T07:16:34Z</time>
      </trkpt>
      <trkpt lat="42.83221" lon="0.24618">
        <ele>1948.1</ele>
        <time>2022-04-07T07:17:16Z</time>
      </trkpt>
      <trkpt lat="42.83226" lon="0.24609">
        <ele>1949</ele>
        <time>2022-04-07T07:17:27Z</time>
      </trkpt>
      <trkpt lat="42.83236" lon="0.24577">
        <ele>1954</ele>
        <time>2022-04-07T07:18:04Z</time>
      </trkpt>
      <trkpt lat="42.83246" lon="0.24572">
        <ele>1954.3</ele>
        <time>2022-04-07T07:18:17Z</time>
      </trkpt>
      <trkpt lat="42.83254" lon="0.24545">
        <ele>1957.9</ele>
        <time>2022-04-07T07:18:51Z</time>
      </trkpt>
      <trkpt lat="42.83263" lon="0.24514">
        <ele>1963.3</ele>
        <time>2022-04-07T07:19:30Z</time>
      </trkpt>
      <trkpt lat="42.83277" lon="0.24496">
        <ele>1966.8</ele>
        <time>2022-04-07T07:19:57Z</time>
      </trkpt>
      <trkpt lat="42.8328" lon="0.24479">
        <ele>1969.6</ele>
        <time>2022-04-07T07:20:18Z</time>
      </trkpt>
      <trkpt lat="42.83295" lon="0.24453">
        <ele>1973.6</ele>
        <time>2022-04-07T07:20:58Z</time>
      </trkpt>
      <trkpt lat="42.83299" lon="0.24439">
        <ele>1976.3</ele>
        <time>2022-04-07T07:21:18Z</time>
      </trkpt>
      <trkpt lat="42.83304" lon="0.24431">
        <ele>1977.5</ele>
        <time>2022-04-07T07:21:32Z</time>
      </trkpt>
      <trkpt lat="42.8331" lon="0.24416">
        <ele>1980.3</ele>
        <time>2022-04-07T07:21:55Z</time>
      </trkpt>
      <trkpt lat="42.83314" lon="0.24406">
        <ele>1982.4</ele>
        <time>2022-04-07T07:22:09Z</time>
      </trkpt>
      <trkpt lat="42.8332" lon="0.2439">
        <ele>1985.3</ele>
        <time>2022-04-07T07:22:40Z</time>
      </trkpt>
      <trkpt lat="42.83325" lon="0.24379">
        <ele>1987.3</ele>
        <time>2022-04-07T07:22:57Z</time>
      </trkpt>
      <trkpt lat="42.83333" lon="0.24358">
        <ele>1990.8</ele>
        <time>2022-04-07T07:23:43Z</time>
      </trkpt>
      <trkpt lat="42.83338" lon="0.2435">
        <ele>1993.2</ele>
        <time>2022-04-07T07:23:57Z</time>
      </trkpt>
      <trkpt lat="42.83337" lon="0.2434">
        <ele>1995.4</ele>
        <time>2022-04-07T07:24:15Z</time>
      </trkpt>
      <trkpt lat="42.83341" lon="0.24326">
        <ele>1998.8</ele>
        <time>2022-04-07T07:24:40Z</time>
      </trkpt>
      <trkpt lat="42.83342" lon="0.24307">
        <ele>2003.3</ele>
        <time>2022-04-07T07:25:12Z</time>
      </trkpt>
      <trkpt lat="42.83347" lon="0.24295">
        <ele>2006.4</ele>
        <time>2022-04-07T07:25:36Z</time>
      </trkpt>
      <trkpt lat="42.83348" lon="0.24278">
        <ele>2010.9</ele>
        <time>2022-04-07T07:26:04Z</time>
      </trkpt>
      <trkpt lat="42.83358" lon="0.24264">
        <ele>2014.2</ele>
        <time>2022-04-07T07:26:35Z</time>
      </trkpt>
      <trkpt lat="42.83356" lon="0.2425">
        <ele>2018.4</ele>
        <time>2022-04-07T07:26:59Z</time>
      </trkpt>
      <trkpt lat="42.83357" lon="0.2424">
        <ele>2020.9</ele>
        <time>2022-04-07T07:27:13Z</time>
      </trkpt>
      <trkpt lat="42.83356" lon="0.24228">
        <ele>2024.2</ele>
        <time>2022-04-07T07:27:33Z</time>
      </trkpt>
      <trkpt lat="42.83357" lon="0.24208">
        <ele>2029.2</ele>
        <time>2022-04-07T07:28:05Z</time>
      </trkpt>
      <trkpt lat="42.83359" lon="0.24178">
        <ele>2035.9</ele>
        <time>2022-04-07T07:28:59Z</time>
      </trkpt>
      <trkpt lat="42.83362" lon="0.24154">
        <ele>2041.7</ele>
        <time>2022-04-07T07:29:43Z</time>
      </trkpt>
      <trkpt lat="42.83361" lon="0.24123">
        <ele>2050</ele>
        <time>2022-04-07T07:30:38Z</time>
      </trkpt>
      <trkpt lat="42.83361" lon="0.24111">
        <ele>2053</ele>
        <time>2022-04-07T07:30:55Z</time>
      </trkpt>
      <trkpt lat="42.83363" lon="0.24098">
        <ele>2056.4</ele>
        <time>2022-04-07T07:31:23Z</time>
      </trkpt>
      <trkpt lat="42.83364" lon="0.24084">
        <ele>2059.9</ele>
        <time>2022-04-07T07:31:43Z</time>
      </trkpt>
      <trkpt lat="42.8336" lon="0.24072">
        <ele>2063.4</ele>
        <time>2022-04-07T07:32:09Z</time>
      </trkpt>
      <trkpt lat="42.83363" lon="0.24063">
        <ele>2065.9</ele>
        <time>2022-04-07T07:32:29Z</time>
      </trkpt>
      <trkpt lat="42.83366" lon="0.24054">
        <ele>2068.7</ele>
        <time>2022-04-07T07:32:47Z</time>
      </trkpt>
      <trkpt lat="42.83372" lon="0.24046">
        <ele>2071.4</ele>
        <time>2022-04-07T07:33:06Z</time>
      </trkpt>
      <trkpt lat="42.83373" lon="0.24034">
        <ele>2075.1</ele>
        <time>2022-04-07T07:33:34Z</time>
      </trkpt>
      <trkpt lat="42.83375" lon="0.2402">
        <ele>2079.4</ele>
        <time>2022-04-07T07:34:09Z</time>
      </trkpt>
      <trkpt lat="42.83386" lon="0.24008">
        <ele>2083.3</ele>
        <time>2022-04-07T07:34:46Z</time>
      </trkpt>
      <trkpt lat="42.83393" lon="0.24002">
        <ele>2086.1</ele>
        <time>2022-04-07T07:35:05Z</time>
      </trkpt>
      <trkpt lat="42.834" lon="0.23998">
        <ele>2088.8</ele>
        <time>2022-04-07T07:35:21Z</time>
      </trkpt>
      <trkpt lat="42.83411" lon="0.23994">
        <ele>2092.2</ele>
        <time>2022-04-07T07:35:52Z</time>
      </trkpt>
      <trkpt lat="42.83417" lon="0.23988">
        <ele>2095.4</ele>
        <time>2022-04-07T07:36:10Z</time>
      </trkpt>
      <trkpt lat="42.8342" lon="0.23975">
        <ele>2101</ele>
        <time>2022-04-07T07:36:59Z</time>
      </trkpt>
      <trkpt lat="42.83414" lon="0.23961">
        <ele>2104.3</ele>
        <time>2022-04-07T07:37:22Z</time>
      </trkpt>
      <trkpt lat="42.83412" lon="0.23949">
        <ele>2107.9</ele>
        <time>2022-04-07T07:37:58Z</time>
      </trkpt>
      <trkpt lat="42.83411" lon="0.23939">
        <ele>2110.9</ele>
        <time>2022-04-07T07:38:12Z</time>
      </trkpt>
      <trkpt lat="42.83416" lon="0.23932">
        <ele>2113.9</ele>
        <time>2022-04-07T07:38:28Z</time>
      </trkpt>
      <trkpt lat="42.83423" lon="0.23921">
        <ele>2119</ele>
        <time>2022-04-07T07:39:03Z</time>
      </trkpt>
      <trkpt lat="42.83428" lon="0.23912">
        <ele>2122.5</ele>
        <time>2022-04-07T07:39:29Z</time>
      </trkpt>
      <trkpt lat="42.8343" lon="0.23901">
        <ele>2125.3</ele>
        <time>2022-04-07T07:39:59Z</time>
      </trkpt>
      <trkpt lat="42.8344" lon="0.23884">
        <ele>2130.5</ele>
        <time>2022-04-07T07:40:39Z</time>
      </trkpt>
      <trkpt lat="42.83443" lon="0.23875">
        <ele>2132.8</ele>
        <time>2022-04-07T07:40:57Z</time>
      </trkpt>
      <trkpt lat="42.83448" lon="0.23867">
        <ele>2135.9</ele>
        <time>2022-04-07T07:41:29Z</time>
      </trkpt>
      <trkpt lat="42.83458" lon="0.23848">
        <ele>2143.2</ele>
        <time>2022-04-07T07:41:59Z</time>
      </trkpt>
      <trkpt lat="42.83469" lon="0.23827">
        <ele>2150.6</ele>
        <time>2022-04-07T07:42:53Z</time>
      </trkpt>
      <trkpt lat="42.83476" lon="0.23806">
        <ele>2156.5</ele>
        <time>2022-04-07T07:43:37Z</time>
      </trkpt>
      <trkpt lat="42.83475" lon="0.23795">
        <ele>2158.9</ele>
        <time>2022-04-07T07:43:56Z</time>
      </trkpt>
      <trkpt lat="42.83476" lon="0.23784">
        <ele>2161.7</ele>
        <time>2022-04-07T07:44:17Z</time>
      </trkpt>
      <trkpt lat="42.83478" lon="0.23766">
        <ele>2166.5</ele>
        <time>2022-04-07T07:44:46Z</time>
      </trkpt>
      <trkpt lat="42.83477" lon="0.23752">
        <ele>2170.4</ele>
        <time>2022-04-07T07:45:11Z</time>
      </trkpt>
      <trkpt lat="42.83482" lon="0.23744">
        <ele>2172.8</ele>
        <time>2022-04-07T07:47:32Z</time>
      </trkpt>
      <trkpt lat="42.8347" lon="0.23725">
        <ele>2178.4</ele>
        <time>2022-04-07T07:48:11Z</time>
      </trkpt>
      <trkpt lat="42.83456" lon="0.23711">
        <ele>2183.2</ele>
        <time>2022-04-07T07:48:43Z</time>
      </trkpt>
      <trkpt lat="42.83433" lon="0.23699">
        <ele>2188.2</ele>
        <time>2022-04-07T07:49:29Z</time>
      </trkpt>
      <trkpt lat="42.8342" lon="0.23692">
        <ele>2191.3</ele>
        <time>2022-04-07T07:50:00Z</time>
      </trkpt>
      <trkpt lat="42.83412" lon="0.2369">
        <ele>2193.1</ele>
        <time>2022-04-07T07:50:19Z</time>
      </trkpt>
      <trkpt lat="42.83404" lon="0.23686">
        <ele>2195.7</ele>
        <time>2022-04-07T07:50:33Z</time>
      </trkpt>
      <trkpt lat="42.83397" lon="0.23681">
        <ele>2198.3</ele>
        <time>2022-04-07T07:50:51Z</time>
      </trkpt>
      <trkpt lat="42.83385" lon="0.23675">
        <ele>2201.8</ele>
        <time>2022-04-07T07:51:18Z</time>
      </trkpt>
      <trkpt lat="42.83372" lon="0.23673">
        <ele>2204.1</ele>
        <time>2022-04-07T07:51:43Z</time>
      </trkpt>
      <trkpt lat="42.83352" lon="0.23665">
        <ele>2207.9</ele>
        <time>2022-04-07T07:52:25Z</time>
      </trkpt>
      <trkpt lat="42.83334" lon="0.23665">
        <ele>2209.1</ele>
        <time>2022-04-07T07:52:46Z</time>
      </trkpt>
      <trkpt lat="42.83317" lon="0.23656">
        <ele>2209.9</ele>
        <time>2022-04-07T07:53:07Z</time>
      </trkpt>
      <trkpt lat="42.83292" lon="0.23657">
        <ele>2210.3</ele>
        <time>2022-04-07T07:53:37Z</time>
      </trkpt>
      <trkpt lat="42.83295" lon="0.23648">
        <ele>2210.6</ele>
        <time>2022-04-07T07:55:13Z</time>
      </trkpt>
      <trkpt lat="42.83304" lon="0.23632">
        <ele>2211.7</ele>
        <time>2022-04-07T07:55:29Z</time>
      </trkpt>
      <trkpt lat="42.83309" lon="0.23623">
        <ele>2212.9</ele>
        <time>2022-04-07T07:55:47Z</time>
      </trkpt>
      <trkpt lat="42.83318" lon="0.23613">
        <ele>2214.7</ele>
        <time>2022-04-07T07:56:02Z</time>
      </trkpt>
      <trkpt lat="42.83337" lon="0.2358">
        <ele>2218.7</ele>
        <time>2022-04-07T07:56:41Z</time>
      </trkpt>
      <trkpt lat="42.83342" lon="0.23568">
        <ele>2220.4</ele>
        <time>2022-04-07T07:56:57Z</time>
      </trkpt>
      <trkpt lat="42.83352" lon="0.23547">
        <ele>2224.5</ele>
        <time>2022-04-07T07:57:28Z</time>
      </trkpt>
      <trkpt lat="42.83363" lon="0.23536">
        <ele>2228.1</ele>
        <time>2022-04-07T07:57:53Z</time>
      </trkpt>
      <trkpt lat="42.83385" lon="0.2351">
        <ele>2235.2</ele>
        <time>2022-04-07T07:58:49Z</time>
      </trkpt>
      <trkpt lat="42.834" lon="0.23493">
        <ele>2241.6</ele>
        <time>2022-04-07T07:59:33Z</time>
      </trkpt>
      <trkpt lat="42.83413" lon="0.23479">
        <ele>2247.8</ele>
        <time>2022-04-07T08:00:15Z</time>
      </trkpt>
      <trkpt lat="42.83419" lon="0.23471">
        <ele>2250.7</ele>
        <time>2022-04-07T08:00:36Z</time>
      </trkpt>
      <trkpt lat="42.8343" lon="0.23459">
        <ele>2255.5</ele>
        <time>2022-04-07T08:01:08Z</time>
      </trkpt>
      <trkpt lat="42.83437" lon="0.23453">
        <ele>2258.4</ele>
        <time>2022-04-07T08:01:24Z</time>
      </trkpt>
      <trkpt lat="42.83443" lon="0.23447">
        <ele>2261.1</ele>
        <time>2022-04-07T08:01:43Z</time>
      </trkpt>
      <trkpt lat="42.83453" lon="0.23437">
        <ele>2264.5</ele>
        <time>2022-04-07T08:02:15Z</time>
      </trkpt>
      <trkpt lat="42.8346" lon="0.23426">
        <ele>2268.1</ele>
        <time>2022-04-07T08:02:44Z</time>
      </trkpt>
      <trkpt lat="42.83465" lon="0.23419">
        <ele>2270.8</ele>
        <time>2022-04-07T08:03:02Z</time>
      </trkpt>
      <trkpt lat="42.83478" lon="0.23407">
        <ele>2276.1</ele>
        <time>2022-04-07T08:03:34Z</time>
      </trkpt>
      <trkpt lat="42.83483" lon="0.234">
        <ele>2278.7</ele>
        <time>2022-04-07T08:03:53Z</time>
      </trkpt>
      <trkpt lat="42.8349" lon="0.23395">
        <ele>2281.2</ele>
        <time>2022-04-07T08:04:11Z</time>
      </trkpt>
      <trkpt lat="42.83495" lon="0.23388">
        <ele>2284.2</ele>
        <time>2022-04-07T08:04:27Z</time>
      </trkpt>
      <trkpt lat="42.83503" lon="0.23385">
        <ele>2285.4</ele>
        <time>2022-04-07T08:04:38Z</time>
      </trkpt>
      <trkpt lat="42.83499" lon="0.23375">
        <ele>2286.3</ele>
        <time>2022-04-07T08:07:11Z</time>
      </trkpt>
      <trkpt lat="42.83484" lon="0.23373">
        <ele>2283.8</ele>
        <time>2022-04-07T08:07:25Z</time>
      </trkpt>
      <trkpt lat="42.83522" lon="0.23377">
        <ele>2286.6</ele>
        <time>2022-04-07T08:07:55Z</time>
      </trkpt>
      <trkpt lat="42.83542" lon="0.23377">
        <ele>2285.2</ele>
        <time>2022-04-07T08:08:12Z</time>
      </trkpt>
      <trkpt lat="42.83553" lon="0.23372">
        <ele>2284.7</ele>
        <time>2022-04-07T08:08:24Z</time>
      </trkpt>
      <trkpt lat="42.83585" lon="0.23382">
        <ele>2282.9</ele>
        <time>2022-04-07T08:08:50Z</time>
      </trkpt>
      <trkpt lat="42.83601" lon="0.23385">
        <ele>2284.6</ele>
        <time>2022-04-07T08:09:02Z</time>
      </trkpt>
      <trkpt lat="42.83605" lon="0.23372">
        <ele>2285</ele>
        <time>2022-04-07T08:09:05Z</time>
      </trkpt>
      <trkpt lat="42.83616" lon="0.23383">
        <ele>2286</ele>
        <time>2022-04-07T08:09:20Z</time>
      </trkpt>
      <trkpt lat="42.8362" lon="0.23374">
        <ele>2285.2</ele>
        <time>2022-04-07T08:09:24Z</time>
      </trkpt>
      <trkpt lat="42.83639" lon="0.23387">
        <ele>2287.6</ele>
        <time>2022-04-07T08:09:47Z</time>
      </trkpt>
      <trkpt lat="42.83644" lon="0.23397">
        <ele>2286.8</ele>
        <time>2022-04-07T08:09:56Z</time>
      </trkpt>
      <trkpt lat="42.83651" lon="0.23398">
        <ele>2286.8</ele>
        <time>2022-04-07T08:10:05Z</time>
      </trkpt>
      <trkpt lat="42.8366" lon="0.23411">
        <ele>2287.5</ele>
        <time>2022-04-07T08:10:15Z</time>
      </trkpt>
      <trkpt lat="42.83687" lon="0.23421">
        <ele>2291.5</ele>
        <time>2022-04-07T08:10:55Z</time>
      </trkpt>
      <trkpt lat="42.83699" lon="0.23432">
        <ele>2292.5</ele>
        <time>2022-04-07T08:11:09Z</time>
      </trkpt>
      <trkpt lat="42.83717" lon="0.23442">
        <ele>2296.3</ele>
        <time>2022-04-07T08:11:32Z</time>
      </trkpt>
      <trkpt lat="42.83727" lon="0.23443">
        <ele>2297.8</ele>
        <time>2022-04-07T08:11:47Z</time>
      </trkpt>
      <trkpt lat="42.83734" lon="0.23442">
        <ele>2297.6</ele>
        <time>2022-04-07T08:11:57Z</time>
      </trkpt>
      <trkpt lat="42.83737" lon="0.23432">
        <ele>2294.2</ele>
        <time>2022-04-07T08:12:02Z</time>
      </trkpt>
      <trkpt lat="42.83749" lon="0.2345">
        <ele>2299.9</ele>
        <time>2022-04-07T08:12:24Z</time>
      </trkpt>
      <trkpt lat="42.83762" lon="0.23459">
        <ele>2302.1</ele>
        <time>2022-04-07T08:12:49Z</time>
      </trkpt>
      <trkpt lat="42.83765" lon="0.23468">
        <ele>2305.3</ele>
        <time>2022-04-07T08:12:57Z</time>
      </trkpt>
      <trkpt lat="42.83783" lon="0.23481">
        <ele>2310.9</ele>
        <time>2022-04-07T08:13:26Z</time>
      </trkpt>
      <trkpt lat="42.83794" lon="0.23509">
        <ele>2318</ele>
        <time>2022-04-07T08:13:53Z</time>
      </trkpt>
      <trkpt lat="42.83795" lon="0.23528">
        <ele>2317</ele>
        <time>2022-04-07T08:14:05Z</time>
      </trkpt>
      <trkpt lat="42.83803" lon="0.23537">
        <ele>2318.4</ele>
        <time>2022-04-07T08:14:21Z</time>
      </trkpt>
      <trkpt lat="42.83809" lon="0.23531">
        <ele>2323</ele>
        <time>2022-04-07T08:14:29Z</time>
      </trkpt>
      <trkpt lat="42.8382" lon="0.23545">
        <ele>2325.6</ele>
        <time>2022-04-07T08:14:46Z</time>
      </trkpt>
      <trkpt lat="42.83825" lon="0.23569">
        <ele>2323.3</ele>
        <time>2022-04-07T08:15:02Z</time>
      </trkpt>
      <trkpt lat="42.8383" lon="0.23584">
        <ele>2322.9</ele>
        <time>2022-04-07T08:15:13Z</time>
      </trkpt>
      <trkpt lat="42.83835" lon="0.23598">
        <ele>2322.7</ele>
        <time>2022-04-07T08:15:23Z</time>
      </trkpt>
      <trkpt lat="42.83853" lon="0.23628">
        <ele>2323.7</ele>
        <time>2022-04-07T08:15:55Z</time>
      </trkpt>
      <trkpt lat="42.83861" lon="0.23635">
        <ele>2325.1</ele>
        <time>2022-04-07T08:16:06Z</time>
      </trkpt>
      <trkpt lat="42.8389" lon="0.2364">
        <ele>2323.6</ele>
        <time>2022-04-07T08:16:43Z</time>
      </trkpt>
      <trkpt lat="42.83913" lon="0.23631">
        <ele>2324.8</ele>
        <time>2022-04-07T08:17:16Z</time>
      </trkpt>
      <trkpt lat="42.83933" lon="0.23618">
        <ele>2327.3</ele>
        <time>2022-04-07T08:17:49Z</time>
      </trkpt>
      <trkpt lat="42.83958" lon="0.23598">
        <ele>2331.1</ele>
        <time>2022-04-07T08:18:20Z</time>
      </trkpt>
      <trkpt lat="42.83978" lon="0.23589">
        <ele>2332.1</ele>
        <time>2022-04-07T08:18:49Z</time>
      </trkpt>
      <trkpt lat="42.83976" lon="0.23578">
        <ele>2332.9</ele>
        <time>2022-04-07T08:19:42Z</time>
      </trkpt>
      <trkpt lat="42.83972" lon="0.23561">
        <ele>2331.4</ele>
        <time>2022-04-07T08:19:53Z</time>
      </trkpt>
      <trkpt lat="42.8397" lon="0.23547">
        <ele>2330.3</ele>
        <time>2022-04-07T08:19:59Z</time>
      </trkpt>
      <trkpt lat="42.83979" lon="0.23525">
        <ele>2326.4</ele>
        <time>2022-04-07T08:20:12Z</time>
      </trkpt>
      <trkpt lat="42.83987" lon="0.2352">
        <ele>2325.8</ele>
        <time>2022-04-07T08:20:18Z</time>
      </trkpt>
      <trkpt lat="42.83992" lon="0.23512">
        <ele>2325.4</ele>
        <time>2022-04-07T08:20:31Z</time>
      </trkpt>
      <trkpt lat="42.83998" lon="0.235">
        <ele>2325.1</ele>
        <time>2022-04-07T08:22:25Z</time>
      </trkpt>
      <trkpt lat="42.84006" lon="0.23497">
        <ele>2324.8</ele>
        <time>2022-04-07T08:22:29Z</time>
      </trkpt>
      <trkpt lat="42.84013" lon="0.23489">
        <ele>2324.4</ele>
        <time>2022-04-07T08:22:39Z</time>
      </trkpt>
      <trkpt lat="42.84025" lon="0.23494">
        <ele>2323.7</ele>
        <time>2022-04-07T08:22:46Z</time>
      </trkpt>
      <trkpt lat="42.84067" lon="0.23483">
        <ele>2318.8</ele>
        <time>2022-04-07T08:24:10Z</time>
      </trkpt>
      <trkpt lat="42.84085" lon="0.23492">
        <ele>2321.2</ele>
        <time>2022-04-07T08:24:29Z</time>
      </trkpt>
      <trkpt lat="42.84095" lon="0.23493">
        <ele>2321.2</ele>
        <time>2022-04-07T08:24:37Z</time>
      </trkpt>
      <trkpt lat="42.84098" lon="0.23497">
        <ele>2323</ele>
        <time>2022-04-07T08:25:39Z</time>
      </trkpt>
      <trkpt lat="42.84103" lon="0.2349">
        <ele>2319.4</ele>
        <time>2022-04-07T08:26:49Z</time>
      </trkpt>
      <trkpt lat="42.84115" lon="0.23487">
        <ele>2318.1</ele>
        <time>2022-04-07T08:27:02Z</time>
      </trkpt>
      <trkpt lat="42.84141" lon="0.23477">
        <ele>2317.5</ele>
        <time>2022-04-07T08:27:21Z</time>
      </trkpt>
      <trkpt lat="42.84181" lon="0.2344">
        <ele>2310.2</ele>
        <time>2022-04-07T08:27:52Z</time>
      </trkpt>
      <trkpt lat="42.84206" lon="0.23404">
        <ele>2303.4</ele>
        <time>2022-04-07T08:28:11Z</time>
      </trkpt>
      <trkpt lat="42.84209" lon="0.23395">
        <ele>2300.7</ele>
        <time>2022-04-07T08:28:24Z</time>
      </trkpt>
      <trkpt lat="42.8423" lon="0.23372">
        <ele>2296.1</ele>
        <time>2022-04-07T08:29:02Z</time>
      </trkpt>
      <trkpt lat="42.84239" lon="0.23344">
        <ele>2291.1</ele>
        <time>2022-04-07T08:29:10Z</time>
      </trkpt>
      <trkpt lat="42.84238" lon="0.23326">
        <ele>2287</ele>
        <time>2022-04-07T08:29:14Z</time>
      </trkpt>
      <trkpt lat="42.84251" lon="0.23309">
        <ele>2287.3</ele>
        <time>2022-04-07T08:29:22Z</time>
      </trkpt>
      <trkpt lat="42.84252" lon="0.23296">
        <ele>2284.2</ele>
        <time>2022-04-07T08:29:29Z</time>
      </trkpt>
      <trkpt lat="42.84249" lon="0.23286">
        <ele>2280.2</ele>
        <time>2022-04-07T08:29:36Z</time>
      </trkpt>
      <trkpt lat="42.84288" lon="0.23204">
        <ele>2267.8</ele>
        <time>2022-04-07T08:29:58Z</time>
      </trkpt>
      <trkpt lat="42.84304" lon="0.23175">
        <ele>2265</ele>
        <time>2022-04-07T08:30:22Z</time>
      </trkpt>
      <trkpt lat="42.8432" lon="0.23163">
        <ele>2266</ele>
        <time>2022-04-07T08:32:08Z</time>
      </trkpt>
      <trkpt lat="42.8436" lon="0.23102">
        <ele>2255.9</ele>
        <time>2022-04-07T08:32:33Z</time>
      </trkpt>
      <trkpt lat="42.8436" lon="0.23088">
        <ele>2254.4</ele>
        <time>2022-04-07T08:32:40Z</time>
      </trkpt>
      <trkpt lat="42.84358" lon="0.23059">
        <ele>2254.4</ele>
        <time>2022-04-07T08:33:00Z</time>
      </trkpt>
      <trkpt lat="42.84358" lon="0.23044">
        <ele>2254.6</ele>
        <time>2022-04-07T08:33:12Z</time>
      </trkpt>
      <trkpt lat="42.8434" lon="0.22993">
        <ele>2253.1</ele>
        <time>2022-04-07T08:33:52Z</time>
      </trkpt>
      <trkpt lat="42.84344" lon="0.22982">
        <ele>2254</ele>
        <time>2022-04-07T08:36:37Z</time>
      </trkpt>
      <trkpt lat="42.84345" lon="0.22968">
        <ele>2254.5</ele>
        <time>2022-04-07T08:36:49Z</time>
      </trkpt>
      <trkpt lat="42.8435" lon="0.22959">
        <ele>2255.7</ele>
        <time>2022-04-07T08:36:58Z</time>
      </trkpt>
      <trkpt lat="42.84357" lon="0.22952">
        <ele>2257.6</ele>
        <time>2022-04-07T08:37:10Z</time>
      </trkpt>
      <trkpt lat="42.84365" lon="0.22943">
        <ele>2260</ele>
        <time>2022-04-07T08:37:32Z</time>
      </trkpt>
      <trkpt lat="42.84371" lon="0.22931">
        <ele>2262.3</ele>
        <time>2022-04-07T08:37:48Z</time>
      </trkpt>
      <trkpt lat="42.84377" lon="0.22922">
        <ele>2264.7</ele>
        <time>2022-04-07T08:38:01Z</time>
      </trkpt>
      <trkpt lat="42.84372" lon="0.22911">
        <ele>2264.8</ele>
        <time>2022-04-07T08:38:14Z</time>
      </trkpt>
      <trkpt lat="42.84362" lon="0.22881">
        <ele>2267.5</ele>
        <time>2022-04-07T08:38:50Z</time>
      </trkpt>
      <trkpt lat="42.84364" lon="0.22855">
        <ele>2271.4</ele>
        <time>2022-04-07T08:39:20Z</time>
      </trkpt>
      <trkpt lat="42.84369" lon="0.22841">
        <ele>2273.9</ele>
        <time>2022-04-07T08:40:01Z</time>
      </trkpt>
      <trkpt lat="42.84375" lon="0.22819">
        <ele>2275.5</ele>
        <time>2022-04-07T08:40:16Z</time>
      </trkpt>
      <trkpt lat="42.84381" lon="0.22809">
        <ele>2276.7</ele>
        <time>2022-04-07T08:40:22Z</time>
      </trkpt>
      <trkpt lat="42.84387" lon="0.2278">
        <ele>2275.7</ele>
        <time>2022-04-07T08:40:45Z</time>
      </trkpt>
      <trkpt lat="42.84399" lon="0.22763">
        <ele>2277.5</ele>
        <time>2022-04-07T08:42:34Z</time>
      </trkpt>
      <trkpt lat="42.84406" lon="0.22758">
        <ele>2278.8</ele>
        <time>2022-04-07T08:42:50Z</time>
      </trkpt>
      <trkpt lat="42.84424" lon="0.22743">
        <ele>2282.3</ele>
        <time>2022-04-07T08:43:19Z</time>
      </trkpt>
      <trkpt lat="42.84437" lon="0.22733">
        <ele>2284.7</ele>
        <time>2022-04-07T08:43:42Z</time>
      </trkpt>
      <trkpt lat="42.84479" lon="0.22725">
        <ele>2287.9</ele>
        <time>2022-04-07T08:44:37Z</time>
      </trkpt>
      <trkpt lat="42.84486" lon="0.22719">
        <ele>2287.4</ele>
        <time>2022-04-07T08:44:43Z</time>
      </trkpt>
      <trkpt lat="42.84504" lon="0.22685">
        <ele>2286.9</ele>
        <time>2022-04-07T08:45:12Z</time>
      </trkpt>
      <trkpt lat="42.84511" lon="0.2268">
        <ele>2288.1</ele>
        <time>2022-04-07T08:45:45Z</time>
      </trkpt>
      <trkpt lat="42.84529" lon="0.2267">
        <ele>2292</ele>
        <time>2022-04-07T08:46:20Z</time>
      </trkpt>
      <trkpt lat="42.84542" lon="0.22664">
        <ele>2296.2</ele>
        <time>2022-04-07T08:46:41Z</time>
      </trkpt>
      <trkpt lat="42.84551" lon="0.22663">
        <ele>2298.7</ele>
        <time>2022-04-07T08:46:59Z</time>
      </trkpt>
      <trkpt lat="42.84567" lon="0.22661">
        <ele>2301.6</ele>
        <time>2022-04-07T08:47:27Z</time>
      </trkpt>
      <trkpt lat="42.84576" lon="0.22667">
        <ele>2302.9</ele>
        <time>2022-04-07T08:48:46Z</time>
      </trkpt>
      <trkpt lat="42.84587" lon="0.22668">
        <ele>2304.5</ele>
        <time>2022-04-07T08:48:58Z</time>
      </trkpt>
      <trkpt lat="42.84597" lon="0.22673">
        <ele>2306.1</ele>
        <time>2022-04-07T08:49:11Z</time>
      </trkpt>
      <trkpt lat="42.84613" lon="0.22675">
        <ele>2308.8</ele>
        <time>2022-04-07T08:49:42Z</time>
      </trkpt>
      <trkpt lat="42.84659" lon="0.22683">
        <ele>2313.6</ele>
        <time>2022-04-07T08:50:39Z</time>
      </trkpt>
      <trkpt lat="42.84677" lon="0.22688">
        <ele>2315.9</ele>
        <time>2022-04-07T08:51:03Z</time>
      </trkpt>
      <trkpt lat="42.84698" lon="0.22692">
        <ele>2318.4</ele>
        <time>2022-04-07T08:51:46Z</time>
      </trkpt>
      <trkpt lat="42.8471" lon="0.22692">
        <ele>2320.6</ele>
        <time>2022-04-07T08:52:07Z</time>
      </trkpt>
      <trkpt lat="42.84731" lon="0.22685">
        <ele>2323.8</ele>
        <time>2022-04-07T08:52:40Z</time>
      </trkpt>
      <trkpt lat="42.84738" lon="0.22678">
        <ele>2325.2</ele>
        <time>2022-04-07T08:53:03Z</time>
      </trkpt>
      <trkpt lat="42.84746" lon="0.22675">
        <ele>2327.2</ele>
        <time>2022-04-07T08:53:21Z</time>
      </trkpt>
      <trkpt lat="42.84764" lon="0.22677">
        <ele>2331.4</ele>
        <time>2022-04-07T08:53:51Z</time>
      </trkpt>
      <trkpt lat="42.84771" lon="0.22672">
        <ele>2333.7</ele>
        <time>2022-04-07T08:54:12Z</time>
      </trkpt>
      <trkpt lat="42.8478" lon="0.22673">
        <ele>2336</ele>
        <time>2022-04-07T08:54:34Z</time>
      </trkpt>
      <trkpt lat="42.84791" lon="0.22667">
        <ele>2340.2</ele>
        <time>2022-04-07T08:55:06Z</time>
      </trkpt>
      <trkpt lat="42.8481" lon="0.22664">
        <ele>2347.1</ele>
        <time>2022-04-07T08:55:53Z</time>
      </trkpt>
      <trkpt lat="42.84815" lon="0.22654">
        <ele>2350.5</ele>
        <time>2022-04-07T08:56:30Z</time>
      </trkpt>
      <trkpt lat="42.84823" lon="0.22644">
        <ele>2354.8</ele>
        <time>2022-04-07T08:57:05Z</time>
      </trkpt>
      <trkpt lat="42.8483" lon="0.22637">
        <ele>2358.2</ele>
        <time>2022-04-07T08:57:30Z</time>
      </trkpt>
      <trkpt lat="42.8484" lon="0.22625">
        <ele>2363.2</ele>
        <time>2022-04-07T08:58:05Z</time>
      </trkpt>
      <trkpt lat="42.84848" lon="0.22617">
        <ele>2366.6</ele>
        <time>2022-04-07T08:58:25Z</time>
      </trkpt>
      <trkpt lat="42.84861" lon="0.22609">
        <ele>2371.1</ele>
        <time>2022-04-07T08:58:55Z</time>
      </trkpt>
      <trkpt lat="42.84868" lon="0.22604">
        <ele>2373.4</ele>
        <time>2022-04-07T08:59:11Z</time>
      </trkpt>
      <trkpt lat="42.84877" lon="0.22595">
        <ele>2375.3</ele>
        <time>2022-04-07T08:59:27Z</time>
      </trkpt>
      <trkpt lat="42.8488" lon="0.22584">
        <ele>2375.1</ele>
        <time>2022-04-07T08:59:41Z</time>
      </trkpt>
      <trkpt lat="42.8489" lon="0.22559">
        <ele>2377.1</ele>
        <time>2022-04-07T09:00:11Z</time>
      </trkpt>
      <trkpt lat="42.84899" lon="0.22548">
        <ele>2379.1</ele>
        <time>2022-04-07T09:00:31Z</time>
      </trkpt>
      <trkpt lat="42.84914" lon="0.22523">
        <ele>2383</ele>
        <time>2022-04-07T09:01:09Z</time>
      </trkpt>
      <trkpt lat="42.84916" lon="0.22509">
        <ele>2384.9</ele>
        <time>2022-04-07T09:01:51Z</time>
      </trkpt>
      <trkpt lat="42.84931" lon="0.22489">
        <ele>2390.8</ele>
        <time>2022-04-07T09:02:42Z</time>
      </trkpt>
      <trkpt lat="42.84937" lon="0.22482">
        <ele>2392.8</ele>
        <time>2022-04-07T09:02:59Z</time>
      </trkpt>
      <trkpt lat="42.8494" lon="0.2247">
        <ele>2394.3</ele>
        <time>2022-04-07T09:04:23Z</time>
      </trkpt>
      <trkpt lat="42.84941" lon="0.22442">
        <ele>2395.9</ele>
        <time>2022-04-07T09:04:53Z</time>
      </trkpt>
      <trkpt lat="42.84945" lon="0.22425">
        <ele>2398.2</ele>
        <time>2022-04-07T09:05:14Z</time>
      </trkpt>
      <trkpt lat="42.8495" lon="0.22419">
        <ele>2399.7</ele>
        <time>2022-04-07T09:05:27Z</time>
      </trkpt>
      <trkpt lat="42.84954" lon="0.22408">
        <ele>2401.6</ele>
        <time>2022-04-07T09:05:50Z</time>
      </trkpt>
      <trkpt lat="42.8496" lon="0.22401">
        <ele>2403.6</ele>
        <time>2022-04-07T09:06:04Z</time>
      </trkpt>
      <trkpt lat="42.84963" lon="0.22389">
        <ele>2405.7</ele>
        <time>2022-04-07T09:06:43Z</time>
      </trkpt>
      <trkpt lat="42.84969" lon="0.2238">
        <ele>2407.9</ele>
        <time>2022-04-07T09:06:53Z</time>
      </trkpt>
      <trkpt lat="42.84977" lon="0.22373">
        <ele>2410.2</ele>
        <time>2022-04-07T09:07:05Z</time>
      </trkpt>
      <trkpt lat="42.84998" lon="0.22352">
        <ele>2415.3</ele>
        <time>2022-04-07T09:07:55Z</time>
      </trkpt>
      <trkpt lat="42.85012" lon="0.22332">
        <ele>2418</ele>
        <time>2022-04-07T09:08:27Z</time>
      </trkpt>
      <trkpt lat="42.85022" lon="0.22323">
        <ele>2420.2</ele>
        <time>2022-04-07T09:08:45Z</time>
      </trkpt>
      <trkpt lat="42.85042" lon="0.22299">
        <ele>2424.9</ele>
        <time>2022-04-07T09:09:26Z</time>
      </trkpt>
      <trkpt lat="42.85046" lon="0.2229">
        <ele>2426.7</ele>
        <time>2022-04-07T09:09:40Z</time>
      </trkpt>
      <trkpt lat="42.85054" lon="0.22271">
        <ele>2431.4</ele>
        <time>2022-04-07T09:10:16Z</time>
      </trkpt>
      <trkpt lat="42.8506" lon="0.22258">
        <ele>2435.3</ele>
        <time>2022-04-07T09:10:50Z</time>
      </trkpt>
      <trkpt lat="42.85064" lon="0.2225">
        <ele>2437.7</ele>
        <time>2022-04-07T09:11:04Z</time>
      </trkpt>
      <trkpt lat="42.85066" lon="0.22235">
        <ele>2440.5</ele>
        <time>2022-04-07T09:11:23Z</time>
      </trkpt>
      <trkpt lat="42.85066" lon="0.22225">
        <ele>2442</ele>
        <time>2022-04-07T09:11:38Z</time>
      </trkpt>
      <trkpt lat="42.85072" lon="0.22203">
        <ele>2447</ele>
        <time>2022-04-07T09:12:10Z</time>
      </trkpt>
      <trkpt lat="42.85075" lon="0.2218">
        <ele>2450.8</ele>
        <time>2022-04-07T09:12:39Z</time>
      </trkpt>
      <trkpt lat="42.85074" lon="0.22158">
        <ele>2454.1</ele>
        <time>2022-04-07T09:13:11Z</time>
      </trkpt>
      <trkpt lat="42.85075" lon="0.22147">
        <ele>2456.5</ele>
        <time>2022-04-07T09:13:28Z</time>
      </trkpt>
      <trkpt lat="42.85071" lon="0.22119">
        <ele>2461.2</ele>
        <time>2022-04-07T09:14:23Z</time>
      </trkpt>
      <trkpt lat="42.85073" lon="0.2211">
        <ele>2463.1</ele>
        <time>2022-04-07T09:14:35Z</time>
      </trkpt>
      <trkpt lat="42.85073" lon="0.22088">
        <ele>2466.9</ele>
        <time>2022-04-07T09:36:08Z</time>
      </trkpt>
      <trkpt lat="42.8508" lon="0.22082">
        <ele>2469.6</ele>
        <time>2022-04-07T09:52:09Z</time>
      </trkpt>
      <trkpt lat="42.85083" lon="0.22073">
        <ele>2472.2</ele>
        <time>2022-04-07T09:52:41Z</time>
      </trkpt>
      <trkpt lat="42.85093" lon="0.22066">
        <ele>2476.1</ele>
        <time>2022-04-07T09:53:03Z</time>
      </trkpt>
      <trkpt lat="42.85093" lon="0.22052">
        <ele>2479.6</ele>
        <time>2022-04-07T09:53:44Z</time>
      </trkpt>
      <trkpt lat="42.85111" lon="0.22051">
        <ele>2485.3</ele>
        <time>2022-04-07T09:54:32Z</time>
      </trkpt>
      <trkpt lat="42.85113" lon="0.22039">
        <ele>2489.4</ele>
        <time>2022-04-07T09:55:04Z</time>
      </trkpt>
      <trkpt lat="42.85115" lon="0.2203">
        <ele>2492.7</ele>
        <time>2022-04-07T09:55:41Z</time>
      </trkpt>
      <trkpt lat="42.85132" lon="0.22033">
        <ele>2497.6</ele>
        <time>2022-04-07T09:56:21Z</time>
      </trkpt>
      <trkpt lat="42.85137" lon="0.22026">
        <ele>2501.9</ele>
        <time>2022-04-07T09:57:22Z</time>
      </trkpt>
      <trkpt lat="42.85146" lon="0.22017">
        <ele>2509</ele>
        <time>2022-04-07T09:58:06Z</time>
      </trkpt>
      <trkpt lat="42.85143" lon="0.22006">
        <ele>2511.6</ele>
        <time>2022-04-07T09:58:32Z</time>
      </trkpt>
      <trkpt lat="42.85148" lon="0.21999">
        <ele>2516.3</ele>
        <time>2022-04-07T09:59:01Z</time>
      </trkpt>
      <trkpt lat="42.85164" lon="0.21999">
        <ele>2523.2</ele>
        <time>2022-04-07T10:01:27Z</time>
      </trkpt>
      <trkpt lat="42.8516" lon="0.21988">
        <ele>2525.3</ele>
        <time>2022-04-07T10:01:53Z</time>
      </trkpt>
      <trkpt lat="42.85166" lon="0.21987">
        <ele>2528.4</ele>
        <time>2022-04-07T10:03:10Z</time>
      </trkpt>
      <trkpt lat="42.85164" lon="0.21976">
        <ele>2531.4</ele>
        <time>2022-04-07T10:03:24Z</time>
      </trkpt>
      <trkpt lat="42.85167" lon="0.21965">
        <ele>2536.8</ele>
        <time>2022-04-07T10:03:45Z</time>
      </trkpt>
      <trkpt lat="42.85178" lon="0.21969">
        <ele>2541.4</ele>
        <time>2022-04-07T10:04:53Z</time>
      </trkpt>
      <trkpt lat="42.85198" lon="0.2195">
        <ele>2561.3</ele>
        <time>2022-04-07T10:05:14Z</time>
      </trkpt>
      <trkpt lat="42.85228" lon="0.21931">
        <ele>2579.7</ele>
        <time>2022-04-07T10:05:25Z</time>
      </trkpt>
      <trkpt lat="42.85217" lon="0.21943">
        <ele>2574.3</ele>
        <time>2022-04-07T10:05:54Z</time>
      </trkpt>
      <trkpt lat="42.85192" lon="0.21953">
        <ele>2556.5</ele>
        <time>2022-04-07T10:20:28Z</time>
      </trkpt>
      <trkpt lat="42.85189" lon="0.21943">
        <ele>2558.8</ele>
        <time>2022-04-07T10:29:46Z</time>
      </trkpt>
      <trkpt lat="42.85182" lon="0.21938">
        <ele>2555.6</ele>
        <time>2022-04-07T10:30:17Z</time>
      </trkpt>
      <trkpt lat="42.85176" lon="0.21945">
        <ele>2549.8</ele>
        <time>2022-04-07T10:30:23Z</time>
      </trkpt>
      <trkpt lat="42.85172" lon="0.21957">
        <ele>2542.7</ele>
        <time>2022-04-07T10:30:28Z</time>
      </trkpt>
      <trkpt lat="42.85164" lon="0.21961">
        <ele>2536.8</ele>
        <time>2022-04-07T10:30:31Z</time>
      </trkpt>
      <trkpt lat="42.85159" lon="0.21973">
        <ele>2530.1</ele>
        <time>2022-04-07T10:30:34Z</time>
      </trkpt>
      <trkpt lat="42.8515" lon="0.21973">
        <ele>2525.9</ele>
        <time>2022-04-07T10:30:37Z</time>
      </trkpt>
      <trkpt lat="42.85144" lon="0.21982">
        <ele>2520.2</ele>
        <time>2022-04-07T10:30:40Z</time>
      </trkpt>
      <trkpt lat="42.85129" lon="0.21979">
        <ele>2514.2</ele>
        <time>2022-04-07T10:30:44Z</time>
      </trkpt>
      <trkpt lat="42.85121" lon="0.21985">
        <ele>2508.5</ele>
        <time>2022-04-07T10:30:47Z</time>
      </trkpt>
      <trkpt lat="42.85114" lon="0.21981">
        <ele>2506.5</ele>
        <time>2022-04-07T10:30:49Z</time>
      </trkpt>
      <trkpt lat="42.85108" lon="0.21975">
        <ele>2505.7</ele>
        <time>2022-04-07T10:30:51Z</time>
      </trkpt>
      <trkpt lat="42.85102" lon="0.21985">
        <ele>2499.7</ele>
        <time>2022-04-07T10:31:45Z</time>
      </trkpt>
      <trkpt lat="42.85094" lon="0.21997">
        <ele>2492.5</ele>
        <time>2022-04-07T10:31:48Z</time>
      </trkpt>
      <trkpt lat="42.85076" lon="0.22021">
        <ele>2480.3</ele>
        <time>2022-04-07T10:31:53Z</time>
      </trkpt>
      <trkpt lat="42.85073" lon="0.22047">
        <ele>2474.5</ele>
        <time>2022-04-07T10:31:56Z</time>
      </trkpt>
      <trkpt lat="42.85072" lon="0.22057">
        <ele>2472.5</ele>
        <time>2022-04-07T10:31:57Z</time>
      </trkpt>
      <trkpt lat="42.8507" lon="0.22067">
        <ele>2470.1</ele>
        <time>2022-04-07T10:31:58Z</time>
      </trkpt>
      <trkpt lat="42.85065" lon="0.22085">
        <ele>2465.8</ele>
        <time>2022-04-07T10:32:00Z</time>
      </trkpt>
      <trkpt lat="42.85063" lon="0.22095">
        <ele>2464</ele>
        <time>2022-04-07T10:32:01Z</time>
      </trkpt>
      <trkpt lat="42.85059" lon="0.22105">
        <ele>2462.1</ele>
        <time>2022-04-07T10:32:02Z</time>
      </trkpt>
      <trkpt lat="42.85056" lon="0.22115">
        <ele>2460.3</ele>
        <time>2022-04-07T10:32:03Z</time>
      </trkpt>
      <trkpt lat="42.85053" lon="0.22126">
        <ele>2457.9</ele>
        <time>2022-04-07T10:32:04Z</time>
      </trkpt>
      <trkpt lat="42.85052" lon="0.22136">
        <ele>2456</ele>
        <time>2022-04-07T10:32:05Z</time>
      </trkpt>
      <trkpt lat="42.85053" lon="0.22147">
        <ele>2453.5</ele>
        <time>2022-04-07T10:32:06Z</time>
      </trkpt>
      <trkpt lat="42.85056" lon="0.2216">
        <ele>2450.8</ele>
        <time>2022-04-07T10:32:07Z</time>
      </trkpt>
      <trkpt lat="42.85059" lon="0.22174">
        <ele>2448.4</ele>
        <time>2022-04-07T10:32:08Z</time>
      </trkpt>
      <trkpt lat="42.85064" lon="0.2219">
        <ele>2446.8</ele>
        <time>2022-04-07T10:32:09Z</time>
      </trkpt>
      <trkpt lat="42.85071" lon="0.22235">
        <ele>2442.2</ele>
        <time>2022-04-07T10:32:12Z</time>
      </trkpt>
      <trkpt lat="42.85074" lon="0.22247">
        <ele>2441.4</ele>
        <time>2022-04-07T10:32:13Z</time>
      </trkpt>
      <trkpt lat="42.85077" lon="0.22256">
        <ele>2441.1</ele>
        <time>2022-04-07T10:32:14Z</time>
      </trkpt>
      <trkpt lat="42.85079" lon="0.22275">
        <ele>2439</ele>
        <time>2022-04-07T10:32:16Z</time>
      </trkpt>
      <trkpt lat="42.85078" lon="0.22325">
        <ele>2435.1</ele>
        <time>2022-04-07T10:32:21Z</time>
      </trkpt>
      <trkpt lat="42.8507" lon="0.22357">
        <ele>2433.5</ele>
        <time>2022-04-07T10:32:26Z</time>
      </trkpt>
      <trkpt lat="42.85052" lon="0.22407">
        <ele>2428.4</ele>
        <time>2022-04-07T10:32:37Z</time>
      </trkpt>
      <trkpt lat="42.85026" lon="0.22505">
        <ele>2418.9</ele>
        <time>2022-04-07T10:32:55Z</time>
      </trkpt>
      <trkpt lat="42.8496" lon="0.2263">
        <ele>2417.5</ele>
        <time>2022-04-07T10:33:25Z</time>
      </trkpt>
      <trkpt lat="42.84935" lon="0.22674">
        <ele>2414.5</ele>
        <time>2022-04-07T10:33:36Z</time>
      </trkpt>
      <trkpt lat="42.84922" lon="0.22713">
        <ele>2412.3</ele>
        <time>2022-04-07T10:34:29Z</time>
      </trkpt>
      <trkpt lat="42.84898" lon="0.2281">
        <ele>2411.2</ele>
        <time>2022-04-07T10:34:57Z</time>
      </trkpt>
      <trkpt lat="42.84783" lon="0.22979">
        <ele>2395</ele>
        <time>2022-04-07T10:35:27Z</time>
      </trkpt>
      <trkpt lat="42.84706" lon="0.23081">
        <ele>2383.7</ele>
        <time>2022-04-07T10:35:46Z</time>
      </trkpt>
      <trkpt lat="42.84682" lon="0.23107">
        <ele>2383.3</ele>
        <time>2022-04-07T10:35:56Z</time>
      </trkpt>
      <trkpt lat="42.84675" lon="0.23116">
        <ele>2381.1</ele>
        <time>2022-04-07T10:36:38Z</time>
      </trkpt>
      <trkpt lat="42.84665" lon="0.23125">
        <ele>2375.5</ele>
        <time>2022-04-07T10:36:46Z</time>
      </trkpt>
      <trkpt lat="42.84661" lon="0.23134">
        <ele>2373.4</ele>
        <time>2022-04-07T10:36:50Z</time>
      </trkpt>
      <trkpt lat="42.84661" lon="0.23144">
        <ele>2373.5</ele>
        <time>2022-04-07T10:38:04Z</time>
      </trkpt>
      <trkpt lat="42.84661" lon="0.23157">
        <ele>2373.4</ele>
        <time>2022-04-07T10:38:07Z</time>
      </trkpt>
      <trkpt lat="42.84651" lon="0.23251">
        <ele>2368.1</ele>
        <time>2022-04-07T10:38:27Z</time>
      </trkpt>
      <trkpt lat="42.84641" lon="0.23277">
        <ele>2367</ele>
        <time>2022-04-07T10:38:35Z</time>
      </trkpt>
      <trkpt lat="42.84599" lon="0.23331">
        <ele>2362.1</ele>
        <time>2022-04-07T10:38:55Z</time>
      </trkpt>
      <trkpt lat="42.84552" lon="0.23371">
        <ele>2355.8</ele>
        <time>2022-04-07T10:39:08Z</time>
      </trkpt>
      <trkpt lat="42.84519" lon="0.23388">
        <ele>2353</ele>
        <time>2022-04-07T10:39:15Z</time>
      </trkpt>
      <trkpt lat="42.84498" lon="0.2339">
        <ele>2350.5</ele>
        <time>2022-04-07T10:39:19Z</time>
      </trkpt>
      <trkpt lat="42.84452" lon="0.2338">
        <ele>2347.9</ele>
        <time>2022-04-07T10:39:27Z</time>
      </trkpt>
      <trkpt lat="42.84399" lon="0.23362">
        <ele>2344.1</ele>
        <time>2022-04-07T10:39:43Z</time>
      </trkpt>
      <trkpt lat="42.84377" lon="0.23363">
        <ele>2341.2</ele>
        <time>2022-04-07T10:39:54Z</time>
      </trkpt>
      <trkpt lat="42.84347" lon="0.2338">
        <ele>2338.5</ele>
        <time>2022-04-07T10:40:53Z</time>
      </trkpt>
      <trkpt lat="42.84335" lon="0.23389">
        <ele>2335.8</ele>
        <time>2022-04-07T10:40:58Z</time>
      </trkpt>
      <trkpt lat="42.8431" lon="0.2343">
        <ele>2335.9</ele>
        <time>2022-04-07T10:41:10Z</time>
      </trkpt>
      <trkpt lat="42.84297" lon="0.2344">
        <ele>2335.9</ele>
        <time>2022-04-07T10:41:13Z</time>
      </trkpt>
      <trkpt lat="42.84201" lon="0.23477">
        <ele>2329.5</ele>
        <time>2022-04-07T10:41:43Z</time>
      </trkpt>
      <trkpt lat="42.84177" lon="0.2349">
        <ele>2329.8</ele>
        <time>2022-04-07T10:41:52Z</time>
      </trkpt>
      <trkpt lat="42.84097" lon="0.23496">
        <ele>2322.6</ele>
        <time>2022-04-07T10:42:14Z</time>
      </trkpt>
      <trkpt lat="42.84087" lon="0.23493">
        <ele>2321.6</ele>
        <time>2022-04-07T10:42:16Z</time>
      </trkpt>
      <trkpt lat="42.84072" lon="0.23485">
        <ele>2319.1</ele>
        <time>2022-04-07T10:42:19Z</time>
      </trkpt>
      <trkpt lat="42.84056" lon="0.23483">
        <ele>2320.1</ele>
        <time>2022-04-07T10:42:24Z</time>
      </trkpt>
      <trkpt lat="42.84049" lon="0.23484">
        <ele>2321</ele>
        <time>2022-04-07T10:42:58Z</time>
      </trkpt>
      <trkpt lat="42.84035" lon="0.23494">
        <ele>2323.5</ele>
        <time>2022-04-07T10:43:08Z</time>
      </trkpt>
      <trkpt lat="42.84004" lon="0.23505">
        <ele>2325</ele>
        <time>2022-04-07T10:43:56Z</time>
      </trkpt>
      <trkpt lat="42.83993" lon="0.2351">
        <ele>2325.3</ele>
        <time>2022-04-07T10:44:21Z</time>
      </trkpt>
      <trkpt lat="42.83983" lon="0.23518">
        <ele>2326</ele>
        <time>2022-04-07T10:46:00Z</time>
      </trkpt>
      <trkpt lat="42.83977" lon="0.23531">
        <ele>2327.2</ele>
        <time>2022-04-07T10:46:16Z</time>
      </trkpt>
      <trkpt lat="42.83974" lon="0.23559">
        <ele>2331.3</ele>
        <time>2022-04-07T10:46:57Z</time>
      </trkpt>
      <trkpt lat="42.83974" lon="0.23573">
        <ele>2332.4</ele>
        <time>2022-04-07T10:47:16Z</time>
      </trkpt>
      <trkpt lat="42.83966" lon="0.23592">
        <ele>2331.7</ele>
        <time>2022-04-07T10:47:37Z</time>
      </trkpt>
      <trkpt lat="42.83946" lon="0.23613">
        <ele>2328.1</ele>
        <time>2022-04-07T10:47:55Z</time>
      </trkpt>
      <trkpt lat="42.83909" lon="0.23635">
        <ele>2323.8</ele>
        <time>2022-04-07T10:48:06Z</time>
      </trkpt>
      <trkpt lat="42.83891" lon="0.23639">
        <ele>2323.8</ele>
        <time>2022-04-07T10:48:11Z</time>
      </trkpt>
      <trkpt lat="42.83864" lon="0.23632">
        <ele>2326</ele>
        <time>2022-04-07T10:48:20Z</time>
      </trkpt>
      <trkpt lat="42.83854" lon="0.23621">
        <ele>2326</ele>
        <time>2022-04-07T10:48:23Z</time>
      </trkpt>
      <trkpt lat="42.83746" lon="0.2347">
        <ele>2302.3</ele>
        <time>2022-04-07T10:48:49Z</time>
      </trkpt>
      <trkpt lat="42.83716" lon="0.23443">
        <ele>2296.2</ele>
        <time>2022-04-07T10:48:53Z</time>
      </trkpt>
      <trkpt lat="42.83605" lon="0.23381">
        <ele>2285.1</ele>
        <time>2022-04-07T10:49:07Z</time>
      </trkpt>
      <trkpt lat="42.83584" lon="0.23377">
        <ele>2283.3</ele>
        <time>2022-04-07T10:49:10Z</time>
      </trkpt>
      <trkpt lat="42.83563" lon="0.23381">
        <ele>2283.1</ele>
        <time>2022-04-07T10:49:13Z</time>
      </trkpt>
      <trkpt lat="42.83473" lon="0.23423">
        <ele>2271.2</ele>
        <time>2022-04-07T10:49:37Z</time>
      </trkpt>
      <trkpt lat="42.83487" lon="0.2343">
        <ele>2268.9</ele>
        <time>2022-04-07T10:51:04Z</time>
      </trkpt>
      <trkpt lat="42.83495" lon="0.23432">
        <ele>2268</ele>
        <time>2022-04-07T10:51:06Z</time>
      </trkpt>
      <trkpt lat="42.83503" lon="0.23446">
        <ele>2261.1</ele>
        <time>2022-04-07T10:51:10Z</time>
      </trkpt>
      <trkpt lat="42.835" lon="0.23459">
        <ele>2255.7</ele>
        <time>2022-04-07T10:51:13Z</time>
      </trkpt>
      <trkpt lat="42.83502" lon="0.23507">
        <ele>2236.1</ele>
        <time>2022-04-07T10:51:20Z</time>
      </trkpt>
      <trkpt lat="42.83498" lon="0.23524">
        <ele>2231.2</ele>
        <time>2022-04-07T10:51:22Z</time>
      </trkpt>
      <trkpt lat="42.83497" lon="0.23575">
        <ele>2220.6</ele>
        <time>2022-04-07T10:51:27Z</time>
      </trkpt>
      <trkpt lat="42.83501" lon="0.23584">
        <ele>2218.9</ele>
        <time>2022-04-07T10:51:28Z</time>
      </trkpt>
      <trkpt lat="42.83511" lon="0.236">
        <ele>2215.8</ele>
        <time>2022-04-07T10:51:30Z</time>
      </trkpt>
      <trkpt lat="42.83514" lon="0.23618">
        <ele>2211.4</ele>
        <time>2022-04-07T10:51:33Z</time>
      </trkpt>
      <trkpt lat="42.83522" lon="0.23616">
        <ele>2211.9</ele>
        <time>2022-04-07T10:51:56Z</time>
      </trkpt>
      <trkpt lat="42.83526" lon="0.23628">
        <ele>2208.7</ele>
        <time>2022-04-07T10:51:59Z</time>
      </trkpt>
      <trkpt lat="42.83525" lon="0.23643">
        <ele>2204.6</ele>
        <time>2022-04-07T10:52:02Z</time>
      </trkpt>
      <trkpt lat="42.83524" lon="0.23662">
        <ele>2199</ele>
        <time>2022-04-07T10:52:05Z</time>
      </trkpt>
      <trkpt lat="42.83521" lon="0.23684">
        <ele>2192.3</ele>
        <time>2022-04-07T10:52:08Z</time>
      </trkpt>
      <trkpt lat="42.83516" lon="0.23703">
        <ele>2186.4</ele>
        <time>2022-04-07T10:52:11Z</time>
      </trkpt>
      <trkpt lat="42.83513" lon="0.23715">
        <ele>2182.9</ele>
        <time>2022-04-07T10:52:13Z</time>
      </trkpt>
      <trkpt lat="42.8351" lon="0.23729">
        <ele>2178.5</ele>
        <time>2022-04-07T10:52:15Z</time>
      </trkpt>
      <trkpt lat="42.83503" lon="0.23739">
        <ele>2174.8</ele>
        <time>2022-04-07T10:52:17Z</time>
      </trkpt>
      <trkpt lat="42.83499" lon="0.23753">
        <ele>2170.2</ele>
        <time>2022-04-07T10:52:19Z</time>
      </trkpt>
      <trkpt lat="42.83496" lon="0.2377">
        <ele>2165.9</ele>
        <time>2022-04-07T10:52:21Z</time>
      </trkpt>
      <trkpt lat="42.83492" lon="0.23786">
        <ele>2162.3</ele>
        <time>2022-04-07T10:52:23Z</time>
      </trkpt>
      <trkpt lat="42.83494" lon="0.238">
        <ele>2160.1</ele>
        <time>2022-04-07T10:52:25Z</time>
      </trkpt>
      <trkpt lat="42.83502" lon="0.23824">
        <ele>2157.8</ele>
        <time>2022-04-07T10:52:29Z</time>
      </trkpt>
      <trkpt lat="42.83498" lon="0.23821">
        <ele>2157.9</ele>
        <time>2022-04-07T10:53:09Z</time>
      </trkpt>
      <trkpt lat="42.83501" lon="0.23808">
        <ele>2159.7</ele>
        <time>2022-04-07T10:53:10Z</time>
      </trkpt>
      <trkpt lat="42.83528" lon="0.23772">
        <ele>2166.7</ele>
        <time>2022-04-07T10:53:14Z</time>
      </trkpt>
      <trkpt lat="42.83519" lon="0.23779">
        <ele>2164.4</ele>
        <time>2022-04-07T10:53:25Z</time>
      </trkpt>
      <trkpt lat="42.83511" lon="0.23793">
        <ele>2161.8</ele>
        <time>2022-04-07T10:53:53Z</time>
      </trkpt>
      <trkpt lat="42.83502" lon="0.23803">
        <ele>2160.3</ele>
        <time>2022-04-07T10:55:03Z</time>
      </trkpt>
      <trkpt lat="42.83498" lon="0.23817">
        <ele>2158.4</ele>
        <time>2022-04-07T10:56:50Z</time>
      </trkpt>
      <trkpt lat="42.8349" lon="0.23822">
        <ele>2156.1</ele>
        <time>2022-04-07T10:57:32Z</time>
      </trkpt>
      <trkpt lat="42.8349" lon="0.23819">
        <ele>2156.6</ele>
        <time>2022-04-07T11:23:10Z</time>
      </trkpt>
      <trkpt lat="42.83484" lon="0.23821">
        <ele>2155.1</ele>
        <time>2022-04-07T11:36:03Z</time>
      </trkpt>
      <trkpt lat="42.83474" lon="0.23815">
        <ele>2154.3</ele>
        <time>2022-04-07T11:36:06Z</time>
      </trkpt>
      <trkpt lat="42.83463" lon="0.2382">
        <ele>2151</ele>
        <time>2022-04-07T11:36:09Z</time>
      </trkpt>
      <trkpt lat="42.83442" lon="0.23859">
        <ele>2136.4</ele>
        <time>2022-04-07T11:36:16Z</time>
      </trkpt>
      <trkpt lat="42.83437" lon="0.23873">
        <ele>2132.7</ele>
        <time>2022-04-07T11:36:18Z</time>
      </trkpt>
      <trkpt lat="42.83417" lon="0.23923">
        <ele>2117</ele>
        <time>2022-04-07T11:36:25Z</time>
      </trkpt>
      <trkpt lat="42.8341" lon="0.23935">
        <ele>2112.1</ele>
        <time>2022-04-07T11:36:27Z</time>
      </trkpt>
      <trkpt lat="42.83413" lon="0.23943">
        <ele>2109.9</ele>
        <time>2022-04-07T11:37:44Z</time>
      </trkpt>
      <trkpt lat="42.83408" lon="0.2395">
        <ele>2107</ele>
        <time>2022-04-07T11:38:50Z</time>
      </trkpt>
      <trkpt lat="42.83401" lon="0.23964">
        <ele>2101.4</ele>
        <time>2022-04-07T11:38:54Z</time>
      </trkpt>
      <trkpt lat="42.83395" lon="0.23981">
        <ele>2094.5</ele>
        <time>2022-04-07T11:38:57Z</time>
      </trkpt>
      <trkpt lat="42.83386" lon="0.23999">
        <ele>2086.3</ele>
        <time>2022-04-07T11:39:00Z</time>
      </trkpt>
      <trkpt lat="42.83379" lon="0.2401">
        <ele>2082.5</ele>
        <time>2022-04-07T11:39:02Z</time>
      </trkpt>
      <trkpt lat="42.83374" lon="0.24022">
        <ele>2078.8</ele>
        <time>2022-04-07T11:39:04Z</time>
      </trkpt>
      <trkpt lat="42.83369" lon="0.24034">
        <ele>2075</ele>
        <time>2022-04-07T11:39:06Z</time>
      </trkpt>
      <trkpt lat="42.83366" lon="0.24049">
        <ele>2070.3</ele>
        <time>2022-04-07T11:39:08Z</time>
      </trkpt>
      <trkpt lat="42.83363" lon="0.24065">
        <ele>2065.3</ele>
        <time>2022-04-07T11:39:10Z</time>
      </trkpt>
      <trkpt lat="42.8336" lon="0.24106">
        <ele>2054.5</ele>
        <time>2022-04-07T11:39:15Z</time>
      </trkpt>
      <trkpt lat="42.83364" lon="0.24116">
        <ele>2051.9</ele>
        <time>2022-04-07T11:39:17Z</time>
      </trkpt>
      <trkpt lat="42.83365" lon="0.24139">
        <ele>2046</ele>
        <time>2022-04-07T11:39:42Z</time>
      </trkpt>
      <trkpt lat="42.83365" lon="0.24158">
        <ele>2040.6</ele>
        <time>2022-04-07T11:39:44Z</time>
      </trkpt>
      <trkpt lat="42.83354" lon="0.24269">
        <ele>2013</ele>
        <time>2022-04-07T11:39:54Z</time>
      </trkpt>
      <trkpt lat="42.83301" lon="0.24441">
        <ele>1975.8</ele>
        <time>2022-04-07T11:40:11Z</time>
      </trkpt>
      <trkpt lat="42.8329" lon="0.24459">
        <ele>1972.7</ele>
        <time>2022-04-07T11:40:13Z</time>
      </trkpt>
      <trkpt lat="42.83279" lon="0.24478">
        <ele>1969.9</ele>
        <time>2022-04-07T11:40:15Z</time>
      </trkpt>
      <trkpt lat="42.83265" lon="0.24508">
        <ele>1964.6</ele>
        <time>2022-04-07T11:40:18Z</time>
      </trkpt>
      <trkpt lat="42.83259" lon="0.24518">
        <ele>1962.6</ele>
        <time>2022-04-07T11:40:19Z</time>
      </trkpt>
      <trkpt lat="42.83253" lon="0.24528">
        <ele>1960.7</ele>
        <time>2022-04-07T11:40:20Z</time>
      </trkpt>
      <trkpt lat="42.83242" lon="0.2455">
        <ele>1958.1</ele>
        <time>2022-04-07T11:40:22Z</time>
      </trkpt>
      <trkpt lat="42.83191" lon="0.24668">
        <ele>1944</ele>
        <time>2022-04-07T11:40:35Z</time>
      </trkpt>
      <trkpt lat="42.83182" lon="0.24681">
        <ele>1942.7</ele>
        <time>2022-04-07T11:40:37Z</time>
      </trkpt>
      <trkpt lat="42.83173" lon="0.2469">
        <ele>1941.6</ele>
        <time>2022-04-07T11:40:39Z</time>
      </trkpt>
      <trkpt lat="42.83151" lon="0.24699">
        <ele>1939.7</ele>
        <time>2022-04-07T11:40:43Z</time>
      </trkpt>
      <trkpt lat="42.83142" lon="0.247">
        <ele>1939.2</ele>
        <time>2022-04-07T11:40:45Z</time>
      </trkpt>
      <trkpt lat="42.83132" lon="0.24697">
        <ele>1939.7</ele>
        <time>2022-04-07T11:41:41Z</time>
      </trkpt>
      <trkpt lat="42.8311" lon="0.24703">
        <ele>1936.1</ele>
        <time>2022-04-07T11:41:48Z</time>
      </trkpt>
      <trkpt lat="42.83099" lon="0.24701">
        <ele>1935.5</ele>
        <time>2022-04-07T11:41:51Z</time>
      </trkpt>
      <trkpt lat="42.83075" lon="0.24703">
        <ele>1931.3</ele>
        <time>2022-04-07T11:41:57Z</time>
      </trkpt>
      <trkpt lat="42.83062" lon="0.247">
        <ele>1929.7</ele>
        <time>2022-04-07T11:42:00Z</time>
      </trkpt>
      <trkpt lat="42.83053" lon="0.247">
        <ele>1928</ele>
        <time>2022-04-07T11:42:02Z</time>
      </trkpt>
      <trkpt lat="42.83044" lon="0.247">
        <ele>1926.4</ele>
        <time>2022-04-07T11:42:04Z</time>
      </trkpt>
      <trkpt lat="42.83013" lon="0.24706">
        <ele>1920.8</ele>
        <time>2022-04-07T11:42:09Z</time>
      </trkpt>
      <trkpt lat="42.82973" lon="0.24726">
        <ele>1913.1</ele>
        <time>2022-04-07T11:42:15Z</time>
      </trkpt>
      <trkpt lat="42.82962" lon="0.24739">
        <ele>1909.9</ele>
        <time>2022-04-07T11:42:17Z</time>
      </trkpt>
      <trkpt lat="42.82922" lon="0.24811">
        <ele>1892.7</ele>
        <time>2022-04-07T11:42:26Z</time>
      </trkpt>
      <trkpt lat="42.82919" lon="0.2482">
        <ele>1890.4</ele>
        <time>2022-04-07T11:42:27Z</time>
      </trkpt>
      <trkpt lat="42.82913" lon="0.24838">
        <ele>1887.3</ele>
        <time>2022-04-07T11:42:29Z</time>
      </trkpt>
      <trkpt lat="42.82877" lon="0.24901">
        <ele>1872.3</ele>
        <time>2022-04-07T11:42:37Z</time>
      </trkpt>
      <trkpt lat="42.82861" lon="0.24911">
        <ele>1868.8</ele>
        <time>2022-04-07T11:42:40Z</time>
      </trkpt>
      <trkpt lat="42.82816" lon="0.24925">
        <ele>1864.6</ele>
        <time>2022-04-07T11:43:07Z</time>
      </trkpt>
      <trkpt lat="42.82783" lon="0.24924">
        <ele>1862.7</ele>
        <time>2022-04-07T11:43:13Z</time>
      </trkpt>
      <trkpt lat="42.82682" lon="0.24889">
        <ele>1851.4</ele>
        <time>2022-04-07T11:43:32Z</time>
      </trkpt>
      <trkpt lat="42.82613" lon="0.24857">
        <ele>1844</ele>
        <time>2022-04-07T11:43:44Z</time>
      </trkpt>
      <trkpt lat="42.826" lon="0.24854">
        <ele>1842.7</ele>
        <time>2022-04-07T11:43:46Z</time>
      </trkpt>
      <trkpt lat="42.82585" lon="0.24856">
        <ele>1840.1</ele>
        <time>2022-04-07T11:43:48Z</time>
      </trkpt>
      <trkpt lat="42.82558" lon="0.24866">
        <ele>1837.9</ele>
        <time>2022-04-07T11:43:53Z</time>
      </trkpt>
      <trkpt lat="42.82543" lon="0.24867">
        <ele>1838.9</ele>
        <time>2022-04-07T11:46:11Z</time>
      </trkpt>
      <trkpt lat="42.82546" lon="0.24884">
        <ele>1835.6</ele>
        <time>2022-04-07T11:46:20Z</time>
      </trkpt>
      <trkpt lat="42.82512" lon="0.25119">
        <ele>1813.7</ele>
        <time>2022-04-07T11:46:44Z</time>
      </trkpt>
      <trkpt lat="42.82502" lon="0.25155">
        <ele>1811.7</ele>
        <time>2022-04-07T11:47:19Z</time>
      </trkpt>
      <trkpt lat="42.82471" lon="0.25233">
        <ele>1801.3</ele>
        <time>2022-04-07T11:47:30Z</time>
      </trkpt>
      <trkpt lat="42.82421" lon="0.25306">
        <ele>1786</ele>
        <time>2022-04-07T11:47:40Z</time>
      </trkpt>
      <trkpt lat="42.82407" lon="0.25319">
        <ele>1783.8</ele>
        <time>2022-04-07T11:47:42Z</time>
      </trkpt>
      <trkpt lat="42.82364" lon="0.25394">
        <ele>1769.3</ele>
        <time>2022-04-07T11:47:50Z</time>
      </trkpt>
      <trkpt lat="42.82309" lon="0.25535">
        <ele>1756.5</ele>
        <time>2022-04-07T11:48:06Z</time>
      </trkpt>
      <trkpt lat="42.82311" lon="0.25555">
        <ele>1750.4</ele>
        <time>2022-04-07T11:48:09Z</time>
      </trkpt>
      <trkpt lat="42.8232" lon="0.25554">
        <ele>1747.7</ele>
        <time>2022-04-07T11:48:12Z</time>
      </trkpt>
      <trkpt lat="42.82339" lon="0.25552">
        <ele>1741.7</ele>
        <time>2022-04-07T11:48:16Z</time>
      </trkpt>
      <trkpt lat="42.82347" lon="0.2556">
        <ele>1738.3</ele>
        <time>2022-04-07T11:48:18Z</time>
      </trkpt>
      <trkpt lat="42.82354" lon="0.25573">
        <ele>1735.2</ele>
        <time>2022-04-07T11:48:20Z</time>
      </trkpt>
      <trkpt lat="42.82363" lon="0.25598">
        <ele>1728.8</ele>
        <time>2022-04-07T11:48:23Z</time>
      </trkpt>
      <trkpt lat="42.82365" lon="0.25615">
        <ele>1725.3</ele>
        <time>2022-04-07T11:48:25Z</time>
      </trkpt>
      <trkpt lat="42.82364" lon="0.25642">
        <ele>1721.8</ele>
        <time>2022-04-07T11:48:29Z</time>
      </trkpt>
      <trkpt lat="42.82364" lon="0.25656">
        <ele>1719.6</ele>
        <time>2022-04-07T11:49:49Z</time>
      </trkpt>
      <trkpt lat="42.82368" lon="0.25682">
        <ele>1714</ele>
        <time>2022-04-07T11:49:53Z</time>
      </trkpt>
      <trkpt lat="42.82377" lon="0.25694">
        <ele>1706.6</ele>
        <time>2022-04-07T11:49:55Z</time>
      </trkpt>
      <trkpt lat="42.82392" lon="0.25736">
        <ele>1693.3</ele>
        <time>2022-04-07T11:50:00Z</time>
      </trkpt>
      <trkpt lat="42.82395" lon="0.25828">
        <ele>1685</ele>
        <time>2022-04-07T11:50:08Z</time>
      </trkpt>
      <trkpt lat="42.82383" lon="0.25898">
        <ele>1676.6</ele>
        <time>2022-04-07T11:50:19Z</time>
      </trkpt>
      <trkpt lat="42.82384" lon="0.25986">
        <ele>1662.3</ele>
        <time>2022-04-07T11:50:30Z</time>
      </trkpt>
      <trkpt lat="42.82387" lon="0.26014">
        <ele>1656.4</ele>
        <time>2022-04-07T11:50:34Z</time>
      </trkpt>
      <trkpt lat="42.82382" lon="0.26111">
        <ele>1646.7</ele>
        <time>2022-04-07T11:50:46Z</time>
      </trkpt>
      <trkpt lat="42.82385" lon="0.26147">
        <ele>1640.8</ele>
        <time>2022-04-07T11:50:51Z</time>
      </trkpt>
      <trkpt lat="42.82383" lon="0.26179">
        <ele>1638.6</ele>
        <time>2022-04-07T11:50:55Z</time>
      </trkpt>
      <trkpt lat="42.82387" lon="0.2619">
        <ele>1634.7</ele>
        <time>2022-04-07T11:50:57Z</time>
      </trkpt>
      <trkpt lat="42.82397" lon="0.2618">
        <ele>1629.6</ele>
        <time>2022-04-07T11:51:00Z</time>
      </trkpt>
      <trkpt lat="42.82448" lon="0.26038">
        <ele>1611.5</ele>
        <time>2022-04-07T11:51:18Z</time>
      </trkpt>
      <trkpt lat="42.82453" lon="0.26029">
        <ele>1609</ele>
        <time>2022-04-07T11:51:20Z</time>
      </trkpt>
      <trkpt lat="42.8246" lon="0.25984">
        <ele>1607.8</ele>
        <time>2022-04-07T11:51:32Z</time>
      </trkpt>
      <trkpt lat="42.82472" lon="0.25967">
        <ele>1600.7</ele>
        <time>2022-04-07T11:51:35Z</time>
      </trkpt>
      <trkpt lat="42.82472" lon="0.25957">
        <ele>1601.8</ele>
        <time>2022-04-07T11:51:37Z</time>
      </trkpt>
      <trkpt lat="42.8252" lon="0.25851">
        <ele>1594.5</ele>
        <time>2022-04-07T11:51:56Z</time>
      </trkpt>
      <trkpt lat="42.82528" lon="0.25841">
        <ele>1592.7</ele>
        <time>2022-04-07T11:53:31Z</time>
      </trkpt>
      <trkpt lat="42.82535" lon="0.25818">
        <ele>1594.4</ele>
        <time>2022-04-07T11:53:53Z</time>
      </trkpt>
    </trkseg>
  </trk>
</gpx>